Home > Products > Valid Products > TAF

000
FTUS41 KBOX 101739
TAFBAF
TAF
KBAF 101739Z 1018/1118 VRB03KT P6SM OVC035
     FM102000 28006KT P6SM BKN050
     FM111400 30011G20KT 5SM -SN BKN035=



000
FTUS41 KBOX 101739
TAFBOS
TAF
KBOS 101739Z 1018/1124 19006KT 4SM -SN BR BKN015 OVC025
     FM102000 23005KT P6SM BKN050
     FM110600 27009KT P6SM BKN060
     FM111500 28013KT 5SM -SN BKN035
     FM111900 28016G25KT P6SM BKN040
     FM112300 29016G28KT P6SM SCT070=



000
FTUS41 KBOX 101739
TAFPVD
TAF
KPVD 101739Z 1018/1118 22004KT 2SM -SN BR OVC010
     FM101900 22004KT P6SM OVC015
     FM102200 25005KT P6SM BKN040
     FM110700 28005KT P6SM BKN040
     FM111500 29013G22KT 5SM -SN BKN035=



000
FTUS41 KBOX 101739
TAFACK
TAF
KACK 101739Z 1018/1118 05006KT P6SM BKN030
     FM102000 30004KT P6SM OVC015
     FM110000 26009KT P6SM BKN040
     FM110600 29013KT P6SM BKN035
     FM111700 29019G26KT P6SM BKN035=



000
FTUS41 KBOX 101739
TAFBDL
TAF
KBDL 101739Z 1018/1124 24005KT P6SM OVC040
     FM102000 25006KT P6SM BKN050
     FM111400 29010KT 5SM -SN BKN035
     FM111700 29013G23KT P6SM BKN040=



000
FTUS41 KBOX 101739
TAFORH
TAF
KORH 101739Z 1018/1118 23007KT 1 1/2SM -SN BR OVC010
     FM102000 23007KT P6SM OVC020
     FM102200 26006KT P6SM BKN040
     FM111400 28012G20KT 4SM -SN OVC030=



000
FTUS41 KBOX 101524 AAA
TAFPVD
TAF AMD
KPVD 101524Z 1015/1112 00000KT 5SM -SN BR OVC015
     FM101700 22004KT P6SM OVC015
     FM102200 26006KT P6SM OVC030
     FM102300 27006KT P6SM BKN040=



000
FTUS41 KBOX 101524 AAA
TAFPVD
TAF AMD
KPVD 101524Z 1015/1112 00000KT 5SM -SN BR OVC015
     FM101700 22004KT P6SM OVC015
     FM102200 26006KT P6SM OVC030
     FM102300 27006KT P6SM BKN040=



000
FTUS41 KBOX 101524 AAA
TAFPVD
TAF AMD
KPVD 101524Z 1015/1112 00000KT 5SM -SN BR OVC015
     FM101700 22004KT P6SM OVC015
     FM102200 26006KT P6SM OVC030
     FM102300 27006KT P6SM BKN040=



000
FTUS41 KBOX 101523 AAA
TAFBDL
TAF AMD
KBDL 101523Z 1015/1118 VRB03KT 1SM -SN BR OVC010
     FM101600 VRB03KT 3SM -SN OVC015
     FM101700 24004KT P6SM OVC015
      TEMPO 1017/1020 2SM -SHSN
     FM102000 26005KT P6SM BKN035
     FM111400 30009KT P6SM VCSH BKN045=



000
FTUS41 KBOX 101523 AAA
TAFBDL
TAF AMD
KBDL 101523Z 1015/1118 VRB03KT 1SM -SN BR OVC010
     FM101600 VRB03KT 3SM -SN OVC015
     FM101700 24004KT P6SM OVC015
      TEMPO 1017/1020 2SM -SHSN
     FM102000 26005KT P6SM BKN035
     FM111400 30009KT P6SM VCSH BKN045=



000
FTUS41 KBOX 101523 AAA
TAFBDL
TAF AMD
KBDL 101523Z 1015/1118 VRB03KT 1SM -SN BR OVC010
     FM101600 VRB03KT 3SM -SN OVC015
     FM101700 24004KT P6SM OVC015
      TEMPO 1017/1020 2SM -SHSN
     FM102000 26005KT P6SM BKN035
     FM111400 30009KT P6SM VCSH BKN045=



000
FTUS41 KBOX 101520 AAB
TAFBOS
TAF AMD
KBOS 101520Z 1015/1118 19005KT 5SM -SN BR BKN025 OVC035
     FM101700 21006KT P6SM OVC015
      TEMPO 1018/1021 2SM -SHSN
     FM102200 25008KT P6SM BKN035
     FM111300 28011KT P6SM VCSH BKN050=



000
FTUS41 KBOX 101347 AAA
TAFORH
TAF AMD
KORH 101347Z 1014/1112 24004KT 3/4SM -SN BKN015 OVC025
     FM101500 24005KT 3SM -SN OVC015
     FM101800 25005KT P6SM VCSH OVC015
     FM102200 26007KT P6SM BKN040=



000
FTUS41 KBOX 101346 AAA
TAFBAF
TAF AMD
KBAF 101346Z 1014/1112 00000KT 1/2SM SN OVC010
     FM101500 00000KT 1 1/2SM -SN OVC015
     FM101700 25004KT P6SM VCSH OVC015
     FM101900 26005KT P6SM OVC025
     FM102000 27005KT P6SM BKN035
     FM110600 33004KT P6SM BKN040
     FM111000 34006KT P6SM VCSH BKN050=



000
FTUS41 KBOX 101346 AAA
TAFBAF
TAF AMD
KBAF 101346Z 1014/1112 00000KT 1/2SM SN OVC010
     FM101500 00000KT 1 1/2SM -SN OVC015
     FM101700 25004KT P6SM VCSH OVC015
     FM101900 26005KT P6SM OVC025
     FM102000 27005KT P6SM BKN035
     FM110600 33004KT P6SM BKN040
     FM111000 34006KT P6SM VCSH BKN050=



000
FTUS41 KBOX 101346 AAA
TAFBAF
TAF AMD
KBAF 101346Z 1014/1112 00000KT 1/2SM SN OVC010
     FM101500 00000KT 1 1/2SM -SN OVC015
     FM101700 25004KT P6SM VCSH OVC015
     FM101900 26005KT P6SM OVC025
     FM102000 27005KT P6SM BKN035
     FM110600 33004KT P6SM BKN040
     FM111000 34006KT P6SM VCSH BKN050=



000
FTUS41 KBOX 101215 AAA
TAFBOS
TAF AMD
KBOS 101215Z 1012/1118 19005KT P6SM BKN025 OVC035
     FM101300 22005KT 6SM -SHSN OVC025
      TEMPO 1013/1016 3SM -SHSN
     FM101800 21006KT P6SM -SHSN OVC008
     FM102200 25008KT P6SM BKN035
     FM111300 28011KT P6SM VCSH BKN050=



000
FTUS41 KBOX 101215 AAA
TAFBOS
TAF AMD
KBOS 101215Z 1012/1118 19005KT P6SM BKN025 OVC035
     FM101300 22005KT 6SM -SHSN OVC025
      TEMPO 1013/1016 3SM -SHSN
     FM101800 21006KT P6SM -SHSN OVC008
     FM102200 25008KT P6SM BKN035
     FM111300 28011KT P6SM VCSH BKN050=



000
FTUS41 KBOX 101215 AAA
TAFBOS
TAF AMD
KBOS 101215Z 1012/1118 19005KT P6SM BKN025 OVC035
     FM101300 22005KT 6SM -SHSN OVC025
      TEMPO 1013/1016 3SM -SHSN
     FM101800 21006KT P6SM -SHSN OVC008
     FM102200 25008KT P6SM BKN035
     FM111300 28011KT P6SM VCSH BKN050=



000
FTUS41 KBOX 101137
TAFBDL
TAF
KBDL 101137Z 1012/1118 00000KT 1SM -SN OVC015
     FM101400 VRB03KT 2SM -SN OVC008
     FM101600 VRB03KT 3SM -SN OVC015
     FM101800 24004KT P6SM OVC015
     FM101900 24005KT P6SM OVC025
     FM102000 26005KT P6SM BKN035
     FM111400 30009KT P6SM VCSH BKN045=



000
FTUS41 KBOX 101137
TAFBAF
TAF
KBAF 101137Z 1012/1112 00000KT 1SM -SN OVC015
     FM101700 25004KT P6SM VCSH OVC015
     FM101900 26005KT P6SM OVC025
     FM102000 27005KT P6SM BKN035
     FM110600 33004KT P6SM BKN040
     FM111000 34006KT P6SM VCSH BKN050=



000
FTUS41 KBOX 101137
TAFBAF
TAF
KBAF 101137Z 1012/1112 00000KT 1SM -SN OVC015
     FM101700 25004KT P6SM VCSH OVC015
     FM101900 26005KT P6SM OVC025
     FM102000 27005KT P6SM BKN035
     FM110600 33004KT P6SM BKN040
     FM111000 34006KT P6SM VCSH BKN050=



000
FTUS41 KBOX 101137
TAFBDL
TAF
KBDL 101137Z 1012/1118 00000KT 1SM -SN OVC015
     FM101400 VRB03KT 2SM -SN OVC008
     FM101600 VRB03KT 3SM -SN OVC015
     FM101800 24004KT P6SM OVC015
     FM101900 24005KT P6SM OVC025
     FM102000 26005KT P6SM BKN035
     FM111400 30009KT P6SM VCSH BKN045=



000
FTUS41 KBOX 101137
TAFBAF
TAF
KBAF 101137Z 1012/1112 00000KT 1SM -SN OVC015
     FM101700 25004KT P6SM VCSH OVC015
     FM101900 26005KT P6SM OVC025
     FM102000 27005KT P6SM BKN035
     FM110600 33004KT P6SM BKN040
     FM111000 34006KT P6SM VCSH BKN050=



000
FTUS41 KBOX 101137
TAFBDL
TAF
KBDL 101137Z 1012/1118 00000KT 1SM -SN OVC015
     FM101400 VRB03KT 2SM -SN OVC008
     FM101600 VRB03KT 3SM -SN OVC015
     FM101800 24004KT P6SM OVC015
     FM101900 24005KT P6SM OVC025
     FM102000 26005KT P6SM BKN035
     FM111400 30009KT P6SM VCSH BKN045=



000
FTUS41 KBOX 101136
TAFBOS
TAF
KBOS 101136Z 1012/1118 19005KT P6SM BKN025 OVC035
     FM101500 22005KT P6SM OVC025
     FM101800 21006KT P6SM -SHSN OVC008
     FM102200 25008KT P6SM BKN035
     FM111300 28011KT P6SM VCSH BKN050=



000
FTUS41 KBOX 101136
TAFBOS
TAF
KBOS 101136Z 1012/1118 19005KT P6SM BKN025 OVC035
     FM101500 22005KT P6SM OVC025
     FM101800 21006KT P6SM -SHSN OVC008
     FM102200 25008KT P6SM BKN035
     FM111300 28011KT P6SM VCSH BKN050=



000
FTUS41 KBOX 101136
TAFBOS
TAF
KBOS 101136Z 1012/1118 19005KT P6SM BKN025 OVC035
     FM101500 22005KT P6SM OVC025
     FM101800 21006KT P6SM -SHSN OVC008
     FM102200 25008KT P6SM BKN035
     FM111300 28011KT P6SM VCSH BKN050=



000
FTUS41 KBOX 101130
TAFORH
TAF
KORH 101130Z 1012/1112 24004KT 3SM -SN OVC020
     FM101300 24005KT P6SM VCSH OVC020
     FM101500 24005KT 3SM -SN OVC015
     FM101800 25005KT P6SM VCSH OVC015
     FM102200 26007KT P6SM BKN040=



000
FTUS41 KBOX 101130
TAFBOS
TAF
KBOS 101130Z 1012/1118 19005KT P6SM OVC035
     FM101500 22005KT P6SM OVC025
     FM101800 21006KT P6SM -SHSN OVC008
     FM102200 25008KT P6SM BKN035
     FM111300 28011KT P6SM VCSH BKN050=



000
FTUS41 KBOX 101130
TAFBOS
TAF
KBOS 101130Z 1012/1118 19005KT P6SM OVC035
     FM101500 22005KT P6SM OVC025
     FM101800 21006KT P6SM -SHSN OVC008
     FM102200 25008KT P6SM BKN035
     FM111300 28011KT P6SM VCSH BKN050=



000
FTUS41 KBOX 101130
TAFPVD
TAF
KPVD 101130Z 1012/1112 00000KT P6SM OVC035
     FM101400 00000KT P6SM -SHSN OVC020
     FM101800 22004KT P6SM OVC015
     FM102200 26006KT P6SM OVC030
     FM102300 27006KT P6SM BKN040=



000
FTUS41 KBOX 101130
TAFBDL
TAF
KBDL 101130Z 1012/1118 00000KT 2SM -SN OVC015
     FM101400 VRB03KT 2SM -SN OVC008
     FM101600 VRB03KT 3SM -SN OVC015
     FM101800 24004KT P6SM OVC015
     FM101900 24005KT P6SM OVC025
     FM102000 26005KT P6SM BKN035
     FM111400 30009KT P6SM VCSH BKN045=



000
FTUS41 KBOX 101130
TAFACK
TAF
KACK 101130Z 1012/1112 VRB03KT P6SM OVC040
     FM101500 VRB03KT P6SM VCSH OVC030
     FM102100 27007KT P6SM VCSH OVC010
     FM102300 27010KT P6SM BKN015
     FM110200 28012G21KT P6SM BKN035
     FM110900 30011G18KT P6SM BKN030=



000
FTUS41 KBOX 101130
TAFPVD
TAF
KPVD 101130Z 1012/1112 00000KT P6SM OVC035
     FM101400 00000KT P6SM -SHSN OVC020
     FM101800 22004KT P6SM OVC015
     FM102200 26006KT P6SM OVC030
     FM102300 27006KT P6SM BKN040=



000
FTUS41 KBOX 101130
TAFACK
TAF
KACK 101130Z 1012/1112 VRB03KT P6SM OVC040
     FM101500 VRB03KT P6SM VCSH OVC030
     FM102100 27007KT P6SM VCSH OVC010
     FM102300 27010KT P6SM BKN015
     FM110200 28012G21KT P6SM BKN035
     FM110900 30011G18KT P6SM BKN030=



000
FTUS41 KBOX 101130
TAFORH
TAF
KORH 101130Z 1012/1112 24004KT 3SM -SN OVC020
     FM101300 24005KT P6SM VCSH OVC020
     FM101500 24005KT 3SM -SN OVC015
     FM101800 25005KT P6SM VCSH OVC015
     FM102200 26007KT P6SM BKN040=



000
FTUS41 KBOX 101130
TAFBAF
TAF
KBAF 101130Z 1012/1112 00000KT 2SM -SN OVC015
     FM101700 25004KT P6SM VCSH OVC015
     FM101900 26005KT P6SM OVC025
     FM102000 27005KT P6SM BKN035
     FM110600 33004KT P6SM BKN040
     FM111000 34006KT P6SM VCSH BKN050=



000
FTUS41 KBOX 101130
TAFBAF
TAF
KBAF 101130Z 1012/1112 00000KT 2SM -SN OVC015
     FM101700 25004KT P6SM VCSH OVC015
     FM101900 26005KT P6SM OVC025
     FM102000 27005KT P6SM BKN035
     FM110600 33004KT P6SM BKN040
     FM111000 34006KT P6SM VCSH BKN050=



000
FTUS41 KBOX 101130
TAFBDL
TAF
KBDL 101130Z 1012/1118 00000KT 2SM -SN OVC015
     FM101400 VRB03KT 2SM -SN OVC008
     FM101600 VRB03KT 3SM -SN OVC015
     FM101800 24004KT P6SM OVC015
     FM101900 24005KT P6SM OVC025
     FM102000 26005KT P6SM BKN035
     FM111400 30009KT P6SM VCSH BKN045=



000
FTUS41 KBOX 101130
TAFBAF
TAF
KBAF 101130Z 1012/1112 00000KT 2SM -SN OVC015
     FM101700 25004KT P6SM VCSH OVC015
     FM101900 26005KT P6SM OVC025
     FM102000 27005KT P6SM BKN035
     FM110600 33004KT P6SM BKN040
     FM111000 34006KT P6SM VCSH BKN050=



000
FTUS41 KBOX 101130
TAFBDL
TAF
KBDL 101130Z 1012/1118 00000KT 2SM -SN OVC015
     FM101400 VRB03KT 2SM -SN OVC008
     FM101600 VRB03KT 3SM -SN OVC015
     FM101800 24004KT P6SM OVC015
     FM101900 24005KT P6SM OVC025
     FM102000 26005KT P6SM BKN035
     FM111400 30009KT P6SM VCSH BKN045=



000
FTUS41 KBOX 101130
TAFBOS
TAF
KBOS 101130Z 1012/1118 19005KT P6SM OVC035
     FM101500 22005KT P6SM OVC025
     FM101800 21006KT P6SM -SHSN OVC008
     FM102200 25008KT P6SM BKN035
     FM111300 28011KT P6SM VCSH BKN050=



000
FTUS41 KBOX 101130
TAFORH
TAF
KORH 101130Z 1012/1112 24004KT 3SM -SN OVC020
     FM101300 24005KT P6SM VCSH OVC020
     FM101500 24005KT 3SM -SN OVC015
     FM101800 25005KT P6SM VCSH OVC015
     FM102200 26007KT P6SM BKN040=



000
FTUS41 KBOX 101130
TAFPVD
TAF
KPVD 101130Z 1012/1112 00000KT P6SM OVC035
     FM101400 00000KT P6SM -SHSN OVC020
     FM101800 22004KT P6SM OVC015
     FM102200 26006KT P6SM OVC030
     FM102300 27006KT P6SM BKN040=



000
FTUS41 KBOX 101130
TAFACK
TAF
KACK 101130Z 1012/1112 VRB03KT P6SM OVC040
     FM101500 VRB03KT P6SM VCSH OVC030
     FM102100 27007KT P6SM VCSH OVC010
     FM102300 27010KT P6SM BKN015
     FM110200 28012G21KT P6SM BKN035
     FM110900 30011G18KT P6SM BKN030=



000
FTUS41 KBOX 100912 AAA
TAFBOS
TAF AMD
KBOS 100912Z 1009/1112 21006KT P6SM SCT025 BKN050
     FM101300 21008KT P6SM VCSH OVC020
     FM101500 21008KT P6SM VCSH OVC015
      TEMPO 1016/1020 3SM -SHSN
     FM102100 23008KT P6SM OVC015
     FM102200 24008KT P6SM BKN035
     FM110800 28010KT P6SM BKN050=



000
FTUS41 KBOX 100911 AAA
TAFPVD
TAF AMD
KPVD 100911Z 1009/1106 00000KT P6SM OVC035
     FM101030 VRB03KT P6SM BKN025
     FM101200 19003KT P6SM VCSH BKN020
     FM101400 21005KT 3SM -SHSN OVC015
     FM101900 21006KT P6SM VCSH OVC015
     FM102100 23007KT P6SM BKN015
     FM102300 27006KT P6SM BKN040=



000
FTUS41 KBOX 100910 AAA
TAFORH
TAF AMD
KORH 100910Z 1009/1106 24008KT P6SM VCSH OVC013
     FM101100 23005KT 3SM -SHSN OVC015
      TEMPO 1012/1015 2SM -SN
     FM101600 24006KT P6SM VCSH OVC020
     FM102100 25006KT P6SM BKN050
     FM110000 26006KT P6SM BKN030
     FM110100 26007KT P6SM BKN050=



000
FTUS41 KBOX 100908 AAA
TAFBAF
TAF AMD
KBAF 100908Z 1009/1106 00000KT 3SM -SHSN BR BKN030
      TEMPO 1009/1013 2SM -SN BKN020
     FM101700 25004KT P6SM VCSH OVC020
     FM101900 26005KT P6SM VCSH OVC025
     FM102100 28005KT P6SM BKN030
     FM102200 29005KT P6SM BKN035=



000
FTUS41 KBOX 100908 AAA
TAFBAF
TAF AMD
KBAF 100908Z 1009/1106 00000KT 3SM -SHSN BR BKN030
      TEMPO 1009/1013 2SM -SN BKN020
     FM101700 25004KT P6SM VCSH OVC020
     FM101900 26005KT P6SM VCSH OVC025
     FM102100 28005KT P6SM BKN030
     FM102200 29005KT P6SM BKN035=



000
FTUS41 KBOX 100907 AAA
TAFBDL
TAF AMD
KBDL 100907Z 1009/1112 VRB03KT 3SM -SHSN BKN030
      TEMPO 1010/1014 2SM -SN BKN020
     FM101700 21004KT P6SM VCSH OVC015
     FM101900 22005KT P6SM VCSH OVC040
     FM102100 26006KT P6SM BKN035
     FM110800 30004KT P6SM VCSH BKN040=



000
FTUS41 KBOX 100534
TAFPVD
TAF
KPVD 100534Z 1006/1106 VRB03KT P6SM BKN060
     FM101000 VRB03KT P6SM VCSH BKN025
     FM101200 19003KT P6SM VCSH BKN020
     FM101600 21005KT 3SM -SHSN OVC015
     FM101900 21006KT P6SM VCSH OVC015
     FM102100 23007KT P6SM BKN015
     FM102300 27006KT P6SM BKN040=



000
FTUS41 KBOX 100534
TAFBDL
TAF
KBDL 100534Z 1006/1112 00000KT P6SM VCSH OVC035
     FM101100 00000KT 3SM -SHSN OVC020
     FM101700 21004KT P6SM VCSH OVC015
     FM101900 22005KT P6SM VCSH OVC040
     FM102100 26006KT P6SM BKN035
     FM110800 30004KT P6SM VCSH BKN040=



000
FTUS41 KBOX 100534
TAFBOS
TAF
KBOS 100534Z 1006/1112 VRB03KT P6SM BKN070
     FM101100 21004KT P6SM BKN025
     FM101300 21005KT P6SM BKN020
     FM101400 21008KT P6SM VCSH OVC020
     FM101900 21008KT P6SM VCSH OVC015
     FM102100 23008KT P6SM OVC015
     FM102200 24008KT P6SM BKN035
     FM110800 28010KT P6SM BKN050=



000
FTUS41 KBOX 100534
TAFACK
TAF
KACK 100534Z 1006/1106 03003KT P6SM BKN025
     FM101000 VRB03KT P6SM VCSH BKN020
     FM101700 07006KT 3SM -SHSN OVC015
     FM102000 29007KT P6SM VCSH OVC015
     FM102300 27010KT P6SM BKN015
     FM110100 27012KT P6SM BKN035=



000
FTUS41 KBOX 100534
TAFBAF
TAF
KBAF 100534Z 1006/1106 00000KT P6SM OVC015
     FM100900 00000KT P6SM VCSH OVC015
     FM101100 00000KT 3SM -SHSN OVC015
     FM101700 25004KT P6SM VCSH OVC020
     FM101900 26005KT P6SM VCSH OVC025
     FM102100 28005KT P6SM BKN030
     FM102200 29005KT P6SM BKN035=



000
FTUS41 KBOX 100534
TAFORH
TAF
KORH 100534Z 1006/1106 23004KT P6SM BKN030
     FM100900 25004KT P6SM VCSH BKN020
     FM101500 23005KT 3SM -SHSN OVC015
     FM101900 24006KT P6SM VCSH OVC020
     FM102100 25006KT P6SM BKN050
     FM110000 26006KT P6SM BKN030
     FM110100 26007KT P6SM BKN050=



000
FTUS41 KBOX 100534
TAFPVD
TAF
KPVD 100534Z 1006/1106 VRB03KT P6SM BKN060
     FM101000 VRB03KT P6SM VCSH BKN025
     FM101200 19003KT P6SM VCSH BKN020
     FM101600 21005KT 3SM -SHSN OVC015
     FM101900 21006KT P6SM VCSH OVC015
     FM102100 23007KT P6SM BKN015
     FM102300 27006KT P6SM BKN040=



000
FTUS41 KBOX 100534
TAFBDL
TAF
KBDL 100534Z 1006/1112 00000KT P6SM VCSH OVC035
     FM101100 00000KT 3SM -SHSN OVC020
     FM101700 21004KT P6SM VCSH OVC015
     FM101900 22005KT P6SM VCSH OVC040
     FM102100 26006KT P6SM BKN035
     FM110800 30004KT P6SM VCSH BKN040=



000
FTUS41 KBOX 100534
TAFBOS
TAF
KBOS 100534Z 1006/1112 VRB03KT P6SM BKN070
     FM101100 21004KT P6SM BKN025
     FM101300 21005KT P6SM BKN020
     FM101400 21008KT P6SM VCSH OVC020
     FM101900 21008KT P6SM VCSH OVC015
     FM102100 23008KT P6SM OVC015
     FM102200 24008KT P6SM BKN035
     FM110800 28010KT P6SM BKN050=



000
FTUS41 KBOX 100534
TAFACK
TAF
KACK 100534Z 1006/1106 03003KT P6SM BKN025
     FM101000 VRB03KT P6SM VCSH BKN020
     FM101700 07006KT 3SM -SHSN OVC015
     FM102000 29007KT P6SM VCSH OVC015
     FM102300 27010KT P6SM BKN015
     FM110100 27012KT P6SM BKN035=



000
FTUS41 KBOX 100534
TAFORH
TAF
KORH 100534Z 1006/1106 23004KT P6SM BKN030
     FM100900 25004KT P6SM VCSH BKN020
     FM101500 23005KT 3SM -SHSN OVC015
     FM101900 24006KT P6SM VCSH OVC020
     FM102100 25006KT P6SM BKN050
     FM110000 26006KT P6SM BKN030
     FM110100 26007KT P6SM BKN050=



000
FTUS41 KBOX 100534
TAFBAF
TAF
KBAF 100534Z 1006/1106 00000KT P6SM OVC015
     FM100900 00000KT P6SM VCSH OVC015
     FM101100 00000KT 3SM -SHSN OVC015
     FM101700 25004KT P6SM VCSH OVC020
     FM101900 26005KT P6SM VCSH OVC025
     FM102100 28005KT P6SM BKN030
     FM102200 29005KT P6SM BKN035=



000
FTUS41 KBOX 100534
TAFORH
TAF
KORH 100534Z 1006/1106 23004KT P6SM BKN030
     FM100900 25004KT P6SM VCSH BKN020
     FM101500 23005KT 3SM -SHSN OVC015
     FM101900 24006KT P6SM VCSH OVC020
     FM102100 25006KT P6SM BKN050
     FM110000 26006KT P6SM BKN030
     FM110100 26007KT P6SM BKN050=



000
FTUS41 KBOX 100534
TAFBAF
TAF
KBAF 100534Z 1006/1106 00000KT P6SM OVC015
     FM100900 00000KT P6SM VCSH OVC015
     FM101100 00000KT 3SM -SHSN OVC015
     FM101700 25004KT P6SM VCSH OVC020
     FM101900 26005KT P6SM VCSH OVC025
     FM102100 28005KT P6SM BKN030
     FM102200 29005KT P6SM BKN035=



000
FTUS41 KBOX 100534
TAFPVD
TAF
KPVD 100534Z 1006/1106 VRB03KT P6SM BKN060
     FM101000 VRB03KT P6SM VCSH BKN025
     FM101200 19003KT P6SM VCSH BKN020
     FM101600 21005KT 3SM -SHSN OVC015
     FM101900 21006KT P6SM VCSH OVC015
     FM102100 23007KT P6SM BKN015
     FM102300 27006KT P6SM BKN040=



000
FTUS41 KBOX 100534
TAFBOS
TAF
KBOS 100534Z 1006/1112 VRB03KT P6SM BKN070
     FM101100 21004KT P6SM BKN025
     FM101300 21005KT P6SM BKN020
     FM101400 21008KT P6SM VCSH OVC020
     FM101900 21008KT P6SM VCSH OVC015
     FM102100 23008KT P6SM OVC015
     FM102200 24008KT P6SM BKN035
     FM110800 28010KT P6SM BKN050=



000
FTUS41 KBOX 100534
TAFBDL
TAF
KBDL 100534Z 1006/1112 00000KT P6SM VCSH OVC035
     FM101100 00000KT 3SM -SHSN OVC020
     FM101700 21004KT P6SM VCSH OVC015
     FM101900 22005KT P6SM VCSH OVC040
     FM102100 26006KT P6SM BKN035
     FM110800 30004KT P6SM VCSH BKN040=



000
FTUS41 KBOX 100534
TAFACK
TAF
KACK 100534Z 1006/1106 03003KT P6SM BKN025
     FM101000 VRB03KT P6SM VCSH BKN020
     FM101700 07006KT 3SM -SHSN OVC015
     FM102000 29007KT P6SM VCSH OVC015
     FM102300 27010KT P6SM BKN015
     FM110100 27012KT P6SM BKN035=



000
FTUS41 KBOX 100256 AAA
TAFBOS
TAF AMD
KBOS 100256Z 1003/1106 VRB03KT P6SM SCT015 BKN030
     FM101000 18004KT P6SM OVC035
     FM101300 18004KT P6SM VCSH OVC035
     FM101400 VRB03KT P6SM VCSH OVC020
     FM102200 21005KT P6SM BKN008
     FM102300 22005KT P6SM BKN040=



000
FTUS41 KBOX 100256 AAA
TAFBOS
TAF AMD
KBOS 100256Z 1003/1106 VRB03KT P6SM SCT015 BKN030
     FM101000 18004KT P6SM OVC035
     FM101300 18004KT P6SM VCSH OVC035
     FM101400 VRB03KT P6SM VCSH OVC020
     FM102200 21005KT P6SM BKN008
     FM102300 22005KT P6SM BKN040=



000
FTUS41 KBOX 100256 AAA
TAFBOS
TAF AMD
KBOS 100256Z 1003/1106 VRB03KT P6SM SCT015 BKN030
     FM101000 18004KT P6SM OVC035
     FM101300 18004KT P6SM VCSH OVC035
     FM101400 VRB03KT P6SM VCSH OVC020
     FM102200 21005KT P6SM BKN008
     FM102300 22005KT P6SM BKN040=



000
FTUS41 KBOX 100253 AAA
TAFBAF
TAF AMD
KBAF 100253Z 1003/1024 00000KT P6SM SCT040 BKN060
     FM100600 00000KT P6SM OVC040
     FM101100 00000KT P6SM VCSH OVC020
     FM102100 24005KT P6SM OVC035=



000
FTUS41 KBOX 100253 AAA
TAFACK
TAF AMD
KACK 100253Z 1003/1024 34005KT P6SM OVC028
     FM100700 34004KT P6SM OVC015
     FM101100 07006KT P6SM VCSH OVC015
     FM101400 11006KT P6SM VCSH OVC015
     FM101700 16006KT P6SM VCSH OVC020
     FM102100 22008KT P6SM -SHRASN BKN015
     FM102200 24009KT P6SM VCSH BKN020=



000
FTUS41 KBOX 100253 AAA
TAFACK
TAF AMD
KACK 100253Z 1003/1024 34005KT P6SM OVC028
     FM100700 34004KT P6SM OVC015
     FM101100 07006KT P6SM VCSH OVC015
     FM101400 11006KT P6SM VCSH OVC015
     FM101700 16006KT P6SM VCSH OVC020
     FM102100 22008KT P6SM -SHRASN BKN015
     FM102200 24009KT P6SM VCSH BKN020=



000
FTUS41 KBOX 100253 AAA
TAFBAF
TAF AMD
KBAF 100253Z 1003/1024 00000KT P6SM SCT040 BKN060
     FM100600 00000KT P6SM OVC040
     FM101100 00000KT P6SM VCSH OVC020
     FM102100 24005KT P6SM OVC035=



000
FTUS41 KBOX 100253 AAA
TAFBAF
TAF AMD
KBAF 100253Z 1003/1024 00000KT P6SM SCT040 BKN060
     FM100600 00000KT P6SM OVC040
     FM101100 00000KT P6SM VCSH OVC020
     FM102100 24005KT P6SM OVC035=



000
FTUS41 KBOX 100252 AAA
TAFBDL
TAF AMD
KBDL 100252Z 1003/1106 00000KT P6SM BKN035
      TEMPO 1003/1005 4SM -SHSN
     FM100600 00000KT P6SM SCT025 BKN035
     FM101100 00000KT P6SM VCSH OVC025
     FM101300 00000KT 1SM -SHSN OVC015
     FM101500 VRB03KT P6SM VCSH OVC008
     FM102100 24004KT P6SM BKN040=



000
FTUS41 KBOX 100252 AAA
TAFBDL
TAF AMD
KBDL 100252Z 1003/1106 00000KT P6SM BKN035
      TEMPO 1003/1005 4SM -SHSN
     FM100600 00000KT P6SM SCT025 BKN035
     FM101100 00000KT P6SM VCSH OVC025
     FM101300 00000KT 1SM -SHSN OVC015
     FM101500 VRB03KT P6SM VCSH OVC008
     FM102100 24004KT P6SM BKN040=



000
FTUS41 KBOX 092342 CCA
TAFACK
TAF COR
KACK 092342Z 1000/1024 35009KT P6SM FEW008 BKN015 OVC035
     FM100400 34004KT P6SM OVC015
     FM101100 07006KT P6SM VCSH OVC015
     FM101400 11006KT P6SM VCSH OVC015
     FM101700 16006KT P6SM VCSH OVC020
     FM102100 22008KT P6SM -SHRASN BKN015
     FM102200 24009KT P6SM VCSH BKN020=



000
FTUS41 KBOX 092342 CCA
TAFBOS
TAF COR
KBOS 092342Z 1000/1106 34004KT P6SM BKN025 BKN100
     FM101000 18004KT P6SM OVC035
     FM101300 18004KT P6SM VCSH OVC035
     FM101400 VRB03KT P6SM VCSH OVC020
     FM102200 21005KT P6SM BKN008
     FM102300 22005KT P6SM BKN040=



000
FTUS41 KBOX 092341
TAFBAF
TAF
KBAF 092341Z 1000/1024 00000KT P6SM SCT035 OVC060
     FM100200 00000KT P6SM OVC030
     FM100300 00000KT P6SM OVC020
     FM100400 00000KT P6SM OVC025
     FM100600 00000KT P6SM OVC040
     FM101100 00000KT P6SM VCSH OVC020
     FM102100 24005KT P6SM OVC035=



000
FTUS41 KBOX 092341
TAFBOS
TAF
KBOS 092341Z 1000/1106 34004KT P6SM BKN035 BKN100
     FM101000 18004KT P6SM OVC035
     FM101300 18004KT P6SM VCSH OVC035
     FM101400 VRB03KT P6SM VCSH OVC020
     FM102200 21005KT P6SM BKN008
     FM102300 22005KT P6SM BKN040=



000
FTUS41 KBOX 092341
TAFBDL
TAF
KBDL 092341Z 1000/1106 VRB03KT P6SM SCT025 BKN200
     FM100400 00000KT P6SM OVC035
     FM101100 00000KT P6SM VCSH OVC025
     FM101300 00000KT 1SM -SHSN OVC015
     FM101500 VRB03KT P6SM VCSH OVC008
     FM102100 24004KT P6SM BKN040=



000
FTUS41 KBOX 092341
TAFACK
TAF
KACK 092341Z 1000/1024 35009KT P6SM FEW008 OVC035
     FM100400 34004KT P6SM OVC015
     FM101100 07006KT P6SM VCSH OVC015
     FM101400 11006KT P6SM VCSH OVC015
     FM101700 16006KT P6SM VCSH OVC020
     FM102100 22008KT P6SM -SHRASN BKN015
     FM102200 24009KT P6SM VCSH BKN020=



000
FTUS41 KBOX 092341
TAFPVD
TAF
KPVD 092341Z 1000/1024 VRB03KT P6SM BKN025 OVC040
     FM100800 00000KT P6SM OVC020
     FM101100 00000KT P6SM VCSH OVC015
     FM101400 00000KT 2SM -SHSN OVC008
     FM101500 00000KT P6SM VCSH OVC008
     FM101600 00000KT 2SM -SHSN OVC008
     FM102000 VRB03KT P6SM VCSH OVC008
     FM102200 22004KT P6SM BKN035=



000
FTUS41 KBOX 092341
TAFORH
TAF
KORH 092341Z 1000/1024 00000KT P6SM OVC025
     FM100500 VRB03KT P6SM OVC035
     FM101100 VRB03KT P6SM VCSH OVC025
     FM101300 VRB03KT P6SM VCSH OVC015
     FM101500 VRB03KT 2SM -SHSN OVC015
     FM101700 VRB03KT P6SM VCSH OVC015
     FM102100 23005KT P6SM BKN015
     FM102300 25006KT P6SM BKN035=



000
FTUS41 KBOX 092141 AAC
TAFPVD
TAF AMD
KPVD 092141Z 0922/1018 02008KT P6SM BKN025
     FM100200 VRB03KT P6SM SCT025 OVC060
     FM100800 VRB03KT P6SM OVC020
     FM100900 01004KT P6SM VCSH OVC020
     FM101500 31005KT P6SM VCSH OVC008
     FM101700 26005KT 2SM -SHSN OVC008=



000
FTUS41 KBOX 092140 AAB
TAFORH
TAF AMD
KORH 092140Z 0922/1018 VRB03KT P6SM SKC
     FM100300 29004KT P6SM OVC050
     FM100900 VRB03KT P6SM VCSH OVC040
     FM101300 VRB03KT P6SM VCSH OVC015=



000
FTUS41 KBOX 092140 AAD
TAFBDL
TAF AMD
KBDL 092140Z 0922/1024 00000KT P6SM BKN030
     FM100200 00000KT P6SM SCT030
     FM100800 00000KT P6SM VCSH OVC035
     FM101500 23004KT P6SM VCSH OVC008
     FM101700 24005KT P6SM OVC015
     FM102100 25005KT P6SM BKN040=



000
FTUS41 KBOX 092138 AAD
TAFBOS
TAF AMD
KBOS 092138Z 0922/1024 VRB03KT P6SM BKN030
     FM100200 33005KT P6SM SCT030 BKN060
     FM101400 29004KT P6SM VCSH OVC020
     FM102200 24005KT P6SM BKN008
     FM102300 23006KT P6SM BKN040=



000
FTUS41 KBOX 091730 AAB
TAFPVD
TAF AMD
KPVD 091730Z 0918/1018 02006KT P6SM BKN035
     FM100200 VRB03KT P6SM OVC060
     FM100800 VRB03KT P6SM OVC020
     FM100900 01004KT P6SM VCSH OVC020
     FM101500 31005KT P6SM VCSH OVC008
     FM101700 26005KT 2SM -SHSN OVC008=



000
FTUS41 KBOX 091730 AAC
TAFBOS
TAF AMD
KBOS 091730Z 0918/1024 02007KT P6SM BKN020
     FM100200 33005KT P6SM BKN060
     FM101400 29004KT P6SM VCSH OVC020
     FM102200 24005KT P6SM BKN008
     FM102300 23006KT P6SM BKN040=



000
FTUS41 KBOX 091730 AAA
TAFORH
TAF AMD
KORH 091730Z 0918/1018 02004KT P6SM BKN020
     FM100300 29004KT P6SM OVC050
     FM100900 VRB03KT P6SM VCSH OVC040
     FM101300 VRB03KT P6SM VCSH OVC015=



000
FTUS41 KBOX 091730 AAC
TAFBOS
TAF AMD
KBOS 091730Z 0918/1024 02007KT P6SM BKN020
     FM100200 33005KT P6SM BKN060
     FM101400 29004KT P6SM VCSH OVC020
     FM102200 24005KT P6SM BKN008
     FM102300 23006KT P6SM BKN040=



000
FTUS41 KBOX 091730 AAB
TAFACK
TAF AMD
KACK 091730Z 0918/1018 02011KT P6SM BKN025
     FM100100 02007KT P6SM BKN015
     FM101000 04007KT P6SM VCSH OVC015
     FM101500 35008KT P6SM VCSH OVC015=



000
FTUS41 KBOX 091730 AAB
TAFBAF
TAF AMD
KBAF 091730Z 0918/1018 03004KT P6SM BKN025
     FM100300 00000KT P6SM OVC035
     FM100900 00000KT P6SM VCSH OVC035
     FM101100 00000KT P6SM VCSH OVC020
     FM101700 24005KT P6SM OVC015=



000
FTUS41 KBOX 091730 AAA
TAFORH
TAF AMD
KORH 091730Z 0918/1018 02004KT P6SM BKN020
     FM100300 29004KT P6SM OVC050
     FM100900 VRB03KT P6SM VCSH OVC040
     FM101300 VRB03KT P6SM VCSH OVC015=



000
FTUS41 KBOX 091730 AAC
TAFBDL
TAF AMD
KBDL 091730Z 0918/1024 03004KT P6SM BKN025
     FM100200 00000KT P6SM OVC035
     FM100800 00000KT P6SM VCSH OVC035
     FM101500 23004KT P6SM VCSH OVC008
     FM101700 24005KT P6SM OVC015
     FM102100 25005KT P6SM BKN040=



000
FTUS41 KBOX 091730 AAB
TAFBAF
TAF AMD
KBAF 091730Z 0918/1018 03004KT P6SM BKN025
     FM100300 00000KT P6SM OVC035
     FM100900 00000KT P6SM VCSH OVC035
     FM101100 00000KT P6SM VCSH OVC020
     FM101700 24005KT P6SM OVC015=



000
FTUS41 KBOX 091730 AAB
TAFACK
TAF AMD
KACK 091730Z 0918/1018 02011KT P6SM BKN025
     FM100100 02007KT P6SM BKN015
     FM101000 04007KT P6SM VCSH OVC015
     FM101500 35008KT P6SM VCSH OVC015=



000
FTUS41 KBOX 091730 AAB
TAFACK
TAF AMD
KACK 091730Z 0918/1018 02011KT P6SM BKN025
     FM100100 02007KT P6SM BKN015
     FM101000 04007KT P6SM VCSH OVC015
     FM101500 35008KT P6SM VCSH OVC015=



000
FTUS41 KBOX 091730 AAB
TAFPVD
TAF AMD
KPVD 091730Z 0918/1018 02006KT P6SM BKN035
     FM100200 VRB03KT P6SM OVC060
     FM100800 VRB03KT P6SM OVC020
     FM100900 01004KT P6SM VCSH OVC020
     FM101500 31005KT P6SM VCSH OVC008
     FM101700 26005KT 2SM -SHSN OVC008=



000
FTUS41 KBOX 091730 AAB
TAFPVD
TAF AMD
KPVD 091730Z 0918/1018 02006KT P6SM BKN035
     FM100200 VRB03KT P6SM OVC060
     FM100800 VRB03KT P6SM OVC020
     FM100900 01004KT P6SM VCSH OVC020
     FM101500 31005KT P6SM VCSH OVC008
     FM101700 26005KT 2SM -SHSN OVC008=



000
FTUS41 KBOX 091730 AAC
TAFBOS
TAF AMD
KBOS 091730Z 0918/1024 02007KT P6SM BKN020
     FM100200 33005KT P6SM BKN060
     FM101400 29004KT P6SM VCSH OVC020
     FM102200 24005KT P6SM BKN008
     FM102300 23006KT P6SM BKN040=



000
FTUS41 KBOX 091730 AAC
TAFBDL
TAF AMD
KBDL 091730Z 0918/1024 03004KT P6SM BKN025
     FM100200 00000KT P6SM OVC035
     FM100800 00000KT P6SM VCSH OVC035
     FM101500 23004KT P6SM VCSH OVC008
     FM101700 24005KT P6SM OVC015
     FM102100 25005KT P6SM BKN040=



000
FTUS41 KBOX 091730 AAC
TAFBDL
TAF AMD
KBDL 091730Z 0918/1024 03004KT P6SM BKN025
     FM100200 00000KT P6SM OVC035
     FM100800 00000KT P6SM VCSH OVC035
     FM101500 23004KT P6SM VCSH OVC008
     FM101700 24005KT P6SM OVC015
     FM102100 25005KT P6SM BKN040=



000
FTUS41 KBOX 091730 AAB
TAFBAF
TAF AMD
KBAF 091730Z 0918/1018 03004KT P6SM BKN025
     FM100300 00000KT P6SM OVC035
     FM100900 00000KT P6SM VCSH OVC035
     FM101100 00000KT P6SM VCSH OVC020
     FM101700 24005KT P6SM OVC015=



000
FTUS41 KBOX 091730 AAA
TAFORH
TAF AMD
KORH 091730Z 0918/1018 02004KT P6SM BKN020
     FM100300 29004KT P6SM OVC050
     FM100900 VRB03KT P6SM VCSH OVC040
     FM101300 VRB03KT P6SM VCSH OVC015=



000
FTUS41 KBOX 091535 AAA
TAFACK
TAF AMD
KACK 091535Z 0916/1012 03008KT 5SM HZ SCT025 OVC035
     FM091800 03011KT P6SM BKN020
     FM100100 02007KT P6SM OVC020
     FM100700 04006KT P6SM VCSH OVC015=



000
FTUS41 KBOX 091535 AAA
TAFACK
TAF AMD
KACK 091535Z 0916/1012 03008KT 5SM HZ SCT025 OVC035
     FM091800 03011KT P6SM BKN020
     FM100100 02007KT P6SM OVC020
     FM100700 04006KT P6SM VCSH OVC015=



000
FTUS41 KBOX 091534 AAA
TAFPVD
TAF AMD
KPVD 091534Z 0916/1012 02010KT P6SM SCT012 BKN035
     FM092000 03005KT P6SM BKN015
     FM100200 VRB03KT P6SM OVC110
     FM100700 VRB03KT P6SM VCSH OVC060=



000
FTUS41 KBOX 091533 AAA
TAFBAF
TAF AMD
KBAF 091533Z 0916/1012 35007KT P6SM SCT025 BKN080
     FM092000 VRB03KT P6SM SCT030
     FM092200 00000KT P6SM BKN020
     FM100500 00000KT P6SM OVC040
     FM100900 00000KT P6SM VCSH OVC025=



000
FTUS41 KBOX 091533 AAB
TAFBDL
TAF AMD
KBDL 091533Z 0916/1018 02008KT P6SM BKN035
     FM092000 VRB03KT P6SM SCT035
     FM100200 00000KT P6SM OVC060
     FM100900 00000KT P6SM VCSH OVC030
     FM101200 00000KT 3SM -SHSN OVC020=



000
FTUS41 KBOX 091528 AAB
TAFBOS
TAF AMD
KBOS 091528Z 0915/1018 34005KT P6SM BKN025 OVC045
     FM091700 02007KT P6SM BKN025
     FM100100 33005KT P6SM OVC150
     FM101200 31004KT 6SM -SHSN OVC040
     FM101600 27004KT P6SM VCSH OVC035=



000
FTUS41 KBOX 091439 AAA
TAFBDL
TAF AMD
KBDL 091439Z 0915/1018 34005KT 5SM -SN BR OVC025
     FM091515 VRB03KT P6SM BKN025
     FM092000 VRB03KT P6SM SCT020
     FM100200 00000KT P6SM OVC060
     FM100900 00000KT P6SM VCSH OVC030
     FM101200 00000KT 3SM -SHSN OVC020=



000
FTUS41 KBOX 091209 AAA
TAFBOS
TAF AMD
KBOS 091209Z 0912/1018 34008KT P6SM BKN015 OVC025
     FM091500 36006KT P6SM BKN025
     FM091800 01007KT P6SM SCT025
     FM100100 33005KT P6SM OVC150
     FM101200 31004KT 6SM -SHSN OVC040
     FM101600 27004KT P6SM VCSH OVC035=



000
FTUS41 KBOX 091209 AAA
TAFBOS
TAF AMD
KBOS 091209Z 0912/1018 34008KT P6SM BKN015 OVC025
     FM091500 36006KT P6SM BKN025
     FM091800 01007KT P6SM SCT025
     FM100100 33005KT P6SM OVC150
     FM101200 31004KT 6SM -SHSN OVC040
     FM101600 27004KT P6SM VCSH OVC035=



000
FTUS41 KBOX 091209 AAA
TAFBOS
TAF AMD
KBOS 091209Z 0912/1018 34008KT P6SM BKN015 OVC025
     FM091500 36006KT P6SM BKN025
     FM091800 01007KT P6SM SCT025
     FM100100 33005KT P6SM OVC150
     FM101200 31004KT 6SM -SHSN OVC040
     FM101600 27004KT P6SM VCSH OVC035=



000
FTUS41 KBOX 091131
TAFORH
TAF
KORH 091131Z 0912/1012 02005KT 4SM -SN OVC025
     FM091400 04004KT P6SM BKN015
     FM092300 33004KT P6SM BKN020
     FM100500 VRB03KT P6SM OVC060
     FM100800 VRB03KT P6SM VCSH OVC040=



000
FTUS41 KBOX 091131
TAFBOS
TAF
KBOS 091131Z 0912/1018 34008KT P6SM OVC025
     FM091500 36006KT P6SM BKN025
     FM091800 01007KT P6SM SCT025
     FM100100 33005KT P6SM OVC150
     FM101200 31004KT 6SM -SHSN OVC040
     FM101600 27004KT P6SM VCSH OVC035=



000
FTUS41 KBOX 091131
TAFPVD
TAF
KPVD 091131Z 0912/1012 36005KT P6SM BKN015 OVC035
     FM091500 01004KT P6SM BKN035
     FM092000 03005KT P6SM BKN015
     FM100200 VRB03KT P6SM OVC110
     FM100700 VRB03KT P6SM VCSH OVC060=



000
FTUS41 KBOX 091131
TAFACK
TAF
KACK 091131Z 0912/1012 02007KT P6SM BKN015 OVC035
     FM091800 02011KT P6SM BKN020
     FM100100 02007KT P6SM OVC020
     FM100700 04006KT P6SM VCSH OVC015=



000
FTUS41 KBOX 091131
TAFBDL
TAF
KBDL 091131Z 0912/1018 VRB03KT P6SM BKN030
     FM091800 VRB03KT P6SM BKN025
     FM092000 VRB03KT P6SM SCT020
     FM100200 00000KT P6SM OVC060
     FM100900 00000KT P6SM VCSH OVC030
     FM101200 00000KT 3SM -SHSN OVC020=



000
FTUS41 KBOX 091131
TAFBAF
TAF
KBAF 091131Z 0912/1012 VRB03KT P6SM BKN025
     FM092000 VRB03KT P6SM SCT020
     FM092200 00000KT P6SM BKN020
     FM100500 00000KT P6SM OVC040
     FM100900 00000KT P6SM VCSH OVC025=



000
FTUS41 KBOX 090924 AAA
TAFACK
TAF AMD
KACK 090924Z 0909/1006 01010KT 4SM -SHSN BKN015
     FM091200 03010KT P6SM BKN015
     FM092100 02014KT P6SM OVC015
     FM100000 01010KT P6SM OVC040
     FM100400 03008KT P6SM OVC030=



000
FTUS41 KBOX 090923 AAA
TAFORH
TAF AMD
KORH 090923Z 0909/1006 03009KT P6SM FEW010 OVC020
      TEMPO 0910/0912 2SM -SHSN BKN015
     FM091200 03004KT P6SM BKN020
     FM091800 02004KT P6SM OVC035
     FM100300 34004KT P6SM OVC030=



000
FTUS41 KBOX 090922 AAA
TAFPVD
TAF AMD
KPVD 090922Z 0909/1006 36011KT P6SM BKN015
      TEMPO 0910/0912 -SHSN
     FM091200 36005KT P6SM BKN015
     FM092200 01006KT P6SM OVC025
     FM092300 01006KT P6SM OVC030
     FM100000 01005KT P6SM OVC040=



000
FTUS41 KBOX 090921 AAA
TAFBDL
TAF AMD
KBDL 090921Z 0909/1012 02003KT P6SM SCT020 BKN030
      TEMPO 0909/0912 3SM -SHSN
     FM091800 01004KT P6SM BKN035
     FM100600 00000KT P6SM OVC020
     FM100700 00000KT P6SM VCSH OVC020
     FM100800 00000KT P6SM VCSH OVC025
     FM101100 00000KT P6SM -SHSN OVC020=



000
FTUS41 KBOX 090921 AAA
TAFBAF
TAF AMD
KBAF 090921Z 0909/1006 00000KT P6SM SCT015 BKN030
      TEMPO 0909/0912 4SM -SHSN BKN015
     FM091200 VRB03KT P6SM BKN020
     FM091800 VRB03KT P6SM BKN035
     FM100300 00000KT P6SM OVC030=



000
FTUS41 KBOX 090919 AAA
TAFBOS
TAF AMD
KBOS 090919Z 0909/1012 34008KT P6SM SCT015 OVC030
      TEMPO 0910/0912 4SM -SHSN BKN015
     FM091200 36006KT P6SM BKN015
     FM091700 02007KT P6SM BKN015
     FM092200 02007KT P6SM OVC025
     FM092300 01006KT P6SM OVC030
     FM100000 01006KT P6SM OVC040
     FM100800 VRB03KT P6SM VCSH OVC040=



000
FTUS41 KBOX 090919 AAA
TAFBOS
TAF AMD
KBOS 090919Z 0909/1012 34008KT P6SM SCT015 OVC030
      TEMPO 0910/0912 4SM -SHSN BKN015
     FM091200 36006KT P6SM BKN015
     FM091700 02007KT P6SM BKN015
     FM092200 02007KT P6SM OVC025
     FM092300 01006KT P6SM OVC030
     FM100000 01006KT P6SM OVC040
     FM100800 VRB03KT P6SM VCSH OVC040=



000
FTUS41 KBOX 090919 AAA
TAFBOS
TAF AMD
KBOS 090919Z 0909/1012 34008KT P6SM SCT015 OVC030
      TEMPO 0910/0912 4SM -SHSN BKN015
     FM091200 36006KT P6SM BKN015
     FM091700 02007KT P6SM BKN015
     FM092200 02007KT P6SM OVC025
     FM092300 01006KT P6SM OVC030
     FM100000 01006KT P6SM OVC040
     FM100800 VRB03KT P6SM VCSH OVC040=



000
FTUS41 KBOX 090542
TAFPVD
TAF
KPVD 090542Z 0906/1006 36007KT P6SM OVC035
     FM091000 36006KT P6SM BKN030
     FM091200 36005KT P6SM BKN015
     FM092200 01006KT P6SM OVC025
     FM092300 01006KT P6SM OVC030
     FM100000 01005KT P6SM OVC040=



000
FTUS41 KBOX 090542
TAFBAF
TAF
KBAF 090542Z 0906/1006 36003KT P6SM SCT015 BKN025
     FM091000 VRB03KT P6SM BKN020
     FM091800 VRB03KT P6SM BKN035
     FM100300 00000KT P6SM OVC030=



000
FTUS41 KBOX 090542
TAFACK
TAF
KACK 090542Z 0906/1006 36012G21KT P6SM BKN015
      TEMPO 0906/0908 3SM -SHSN
     FM091800 02013KT P6SM BKN015
     FM092100 02014KT P6SM OVC015
     FM100000 01010KT P6SM OVC040
     FM100400 03008KT P6SM OVC030=



000
FTUS41 KBOX 090542
TAFORH
TAF
KORH 090542Z 0906/1006 02006KT 2SM -SN OVC030
     FM090715 03005KT P6SM OVC030
     FM091200 03004KT P6SM BKN020
     FM091800 02004KT P6SM OVC035
     FM100300 34004KT P6SM OVC030=



000
FTUS41 KBOX 090542
TAFBDL
TAF
KBDL 090542Z 0906/1012 02004KT P6SM SCT015 BKN025
     FM091000 02004KT P6SM BKN030
     FM091800 01004KT P6SM BKN035
     FM100600 00000KT P6SM OVC020
     FM100700 00000KT P6SM VCSH OVC020
     FM100800 00000KT P6SM VCSH OVC025
     FM101100 00000KT P6SM -SHSN OVC020=



000
FTUS41 KBOX 090542
TAFBOS
TAF
KBOS 090542Z 0906/1012 35009KT 4SM -SN OVC035
     FM090730 36008KT P6SM OVC030
     FM091200 36006KT P6SM BKN015
     FM091700 02007KT P6SM BKN015
     FM092200 02007KT P6SM OVC025
     FM092300 01006KT P6SM OVC030
     FM100000 01006KT P6SM OVC040
     FM100800 VRB03KT P6SM VCSH OVC040=



000
FTUS41 KBOX 090542
TAFACK
TAF
KACK 090542Z 0906/1006 36012G21KT P6SM BKN015
      TEMPO 0906/0908 3SM -SHSN
     FM091800 02013KT P6SM BKN015
     FM092100 02014KT P6SM OVC015
     FM100000 01010KT P6SM OVC040
     FM100400 03008KT P6SM OVC030=



000
FTUS41 KBOX 090542
TAFBOS
TAF
KBOS 090542Z 0906/1012 35009KT 4SM -SN OVC035
     FM090730 36008KT P6SM OVC030
     FM091200 36006KT P6SM BKN015
     FM091700 02007KT P6SM BKN015
     FM092200 02007KT P6SM OVC025
     FM092300 01006KT P6SM OVC030
     FM100000 01006KT P6SM OVC040
     FM100800 VRB03KT P6SM VCSH OVC040=



000
FTUS41 KBOX 090542
TAFACK
TAF
KACK 090542Z 0906/1006 36012G21KT P6SM BKN015
      TEMPO 0906/0908 3SM -SHSN
     FM091800 02013KT P6SM BKN015
     FM092100 02014KT P6SM OVC015
     FM100000 01010KT P6SM OVC040
     FM100400 03008KT P6SM OVC030=



000
FTUS41 KBOX 090542
TAFORH
TAF
KORH 090542Z 0906/1006 02006KT 2SM -SN OVC030
     FM090715 03005KT P6SM OVC030
     FM091200 03004KT P6SM BKN020
     FM091800 02004KT P6SM OVC035
     FM100300 34004KT P6SM OVC030=



000
FTUS41 KBOX 090542
TAFBAF
TAF
KBAF 090542Z 0906/1006 36003KT P6SM SCT015 BKN025
     FM091000 VRB03KT P6SM BKN020
     FM091800 VRB03KT P6SM BKN035
     FM100300 00000KT P6SM OVC030=



000
FTUS41 KBOX 090542
TAFPVD
TAF
KPVD 090542Z 0906/1006 36007KT P6SM OVC035
     FM091000 36006KT P6SM BKN030
     FM091200 36005KT P6SM BKN015
     FM092200 01006KT P6SM OVC025
     FM092300 01006KT P6SM OVC030
     FM100000 01005KT P6SM OVC040=



000
FTUS41 KBOX 090542
TAFPVD
TAF
KPVD 090542Z 0906/1006 36007KT P6SM OVC035
     FM091000 36006KT P6SM BKN030
     FM091200 36005KT P6SM BKN015
     FM092200 01006KT P6SM OVC025
     FM092300 01006KT P6SM OVC030
     FM100000 01005KT P6SM OVC040=



000
FTUS41 KBOX 090542
TAFORH
TAF
KORH 090542Z 0906/1006 02006KT 2SM -SN OVC030
     FM090715 03005KT P6SM OVC030
     FM091200 03004KT P6SM BKN020
     FM091800 02004KT P6SM OVC035
     FM100300 34004KT P6SM OVC030=



000
FTUS41 KBOX 090542
TAFBDL
TAF
KBDL 090542Z 0906/1012 02004KT P6SM SCT015 BKN025
     FM091000 02004KT P6SM BKN030
     FM091800 01004KT P6SM BKN035
     FM100600 00000KT P6SM OVC020
     FM100700 00000KT P6SM VCSH OVC020
     FM100800 00000KT P6SM VCSH OVC025
     FM101100 00000KT P6SM -SHSN OVC020=



000
FTUS41 KBOX 090542
TAFBDL
TAF
KBDL 090542Z 0906/1012 02004KT P6SM SCT015 BKN025
     FM091000 02004KT P6SM BKN030
     FM091800 01004KT P6SM BKN035
     FM100600 00000KT P6SM OVC020
     FM100700 00000KT P6SM VCSH OVC020
     FM100800 00000KT P6SM VCSH OVC025
     FM101100 00000KT P6SM -SHSN OVC020=



000
FTUS41 KBOX 090542
TAFBOS
TAF
KBOS 090542Z 0906/1012 35009KT 4SM -SN OVC035
     FM090730 36008KT P6SM OVC030
     FM091200 36006KT P6SM BKN015
     FM091700 02007KT P6SM BKN015
     FM092200 02007KT P6SM OVC025
     FM092300 01006KT P6SM OVC030
     FM100000 01006KT P6SM OVC040
     FM100800 VRB03KT P6SM VCSH OVC040=



000
FTUS41 KBOX 090542
TAFBAF
TAF
KBAF 090542Z 0906/1006 36003KT P6SM SCT015 BKN025
     FM091000 VRB03KT P6SM BKN020
     FM091800 VRB03KT P6SM BKN035
     FM100300 00000KT P6SM OVC030=



000
FTUS41 KBOX 090316 AAA
TAFPVD
TAF AMD
KPVD 090316Z 0903/0924 01012G20KT 3SM -SN FEW025 OVC035
     FM090600 36008KT P6SM BKN030
     FM091200 36006KT P6SM OVC025
     FM091400 01007KT P6SM OVC020
     FM092000 01006KT P6SM OVC015=



000
FTUS41 KBOX 090316 AAA
TAFPVD
TAF AMD
KPVD 090316Z 0903/0924 01012G20KT 3SM -SN FEW025 OVC035
     FM090600 36008KT P6SM BKN030
     FM091200 36006KT P6SM OVC025
     FM091400 01007KT P6SM OVC020
     FM092000 01006KT P6SM OVC015=



000
FTUS41 KBOX 090314 AAA
TAFBAF
TAF AMD
KBAF 090314Z 0903/0924 02004KT P6SM BKN030
      TEMPO 0903/0905 4SM -SHSN
     FM090500 VRB03KT P6SM OVC020
     FM092100 00000KT P6SM OVC030=



000
FTUS41 KBOX 090313 AAA
TAFBDL
TAF AMD
KBDL 090313Z 0903/1006 02007KT P6SM SCT025 BKN040
      TEMPO 0903/0905 4SM -SHSN
     FM090600 02004KT P6SM OVC020
     FM092100 VRB03KT P6SM OVC035=



000
FTUS41 KBOX 090313 AAA
TAFBDL
TAF AMD
KBDL 090313Z 0903/1006 02007KT P6SM SCT025 BKN040
      TEMPO 0903/0905 4SM -SHSN
     FM090600 02004KT P6SM OVC020
     FM092100 VRB03KT P6SM OVC035=



000
FTUS41 KBOX 090313 AAA
TAFBDL
TAF AMD
KBDL 090313Z 0903/1006 02007KT P6SM SCT025 BKN040
      TEMPO 0903/0905 4SM -SHSN
     FM090600 02004KT P6SM OVC020
     FM092100 VRB03KT P6SM OVC035=



000
FTUS41 KBOX 090311 AAA
TAFBOS
TAF AMD
KBOS 090311Z 0903/1006 34012G21KT 2SM -SN BR OVC030
     FM090500 34011KT 4SM -SHSN SCT025 BKN035
     FM090900 35008KT P6SM OVC015
     FM091800 02007KT P6SM OVC015
     FM100100 36006KT P6SM OVC070=



000
FTUS41 KBOX 082328
TAFPVD
TAF
KPVD 082328Z 0900/0924 36015KT 1SM -SN OVC015
     FM090300 36008KT 2SM -SN OVC015
     FM090500 36008KT P6SM OVC015
     FM091200 36006KT P6SM OVC025
     FM091400 01007KT P6SM OVC020
     FM092000 01006KT P6SM OVC015=



000
FTUS41 KBOX 082328
TAFBAF
TAF
KBAF 082328Z 0900/0924 02006KT 1SM -SN OVC015
     FM090500 VRB03KT P6SM OVC020
     FM092100 00000KT P6SM OVC030=



000
FTUS41 KBOX 082328
TAFORH
TAF
KORH 082328Z 0900/0924 02012G18KT 1SM -SN OVC015
     FM090200 02008KT 1SM -SN OVC015
     FM090500 02006KT P6SM OVC015
     FM091100 03005KT P6SM OVC020=



000
FTUS41 KBOX 082328
TAFBOS
TAF
KBOS 082328Z 0900/1006 35013G25KT 4SM -SN OVC025
     FM090500 35009KT 2SM -SN OVC010
     FM090900 35008KT P6SM OVC015
     FM091800 02007KT P6SM OVC015
     FM100100 36006KT P6SM OVC070=



000
FTUS41 KBOX 082328
TAFACK
TAF
KACK 082328Z 0900/0924 01022G36KT 1SM -SN OVC012
     FM090400 36018G27KT P6SM OVC015
     FM090600 36015G23KT P6SM OVC020
     FM090900 01012KT P6SM OVC040
     FM091200 02009KT P6SM BKN025
     FM091500 03009KT P6SM OVC020=



000
FTUS41 KBOX 082328
TAFBDL
TAF
KBDL 082328Z 0900/1006 01007KT 1SM -SN OVC012
     FM090500 02004KT P6SM OVC020
     FM092100 VRB03KT P6SM OVC035=



000
FTUS41 KBOX 082328
TAFBOS
TAF
KBOS 082328Z 0900/1006 35013G25KT 4SM -SN OVC025
     FM090500 35009KT 2SM -SN OVC010
     FM090900 35008KT P6SM OVC015
     FM091800 02007KT P6SM OVC015
     FM100100 36006KT P6SM OVC070=



000
FTUS41 KBOX 082328
TAFACK
TAF
KACK 082328Z 0900/0924 01022G36KT 1SM -SN OVC012
     FM090400 36018G27KT P6SM OVC015
     FM090600 36015G23KT P6SM OVC020
     FM090900 01012KT P6SM OVC040
     FM091200 02009KT P6SM BKN025
     FM091500 03009KT P6SM OVC020=



000
FTUS41 KBOX 082328
TAFORH
TAF
KORH 082328Z 0900/0924 02012G18KT 1SM -SN OVC015
     FM090200 02008KT 1SM -SN OVC015
     FM090500 02006KT P6SM OVC015
     FM091100 03005KT P6SM OVC020=



000
FTUS41 KBOX 082328
TAFBAF
TAF
KBAF 082328Z 0900/0924 02006KT 1SM -SN OVC015
     FM090500 VRB03KT P6SM OVC020
     FM092100 00000KT P6SM OVC030=



000
FTUS41 KBOX 082328
TAFBDL
TAF
KBDL 082328Z 0900/1006 01007KT 1SM -SN OVC012
     FM090500 02004KT P6SM OVC020
     FM092100 VRB03KT P6SM OVC035=



000
FTUS41 KBOX 082328
TAFPVD
TAF
KPVD 082328Z 0900/0924 36015KT 1SM -SN OVC015
     FM090300 36008KT 2SM -SN OVC015
     FM090500 36008KT P6SM OVC015
     FM091200 36006KT P6SM OVC025
     FM091400 01007KT P6SM OVC020
     FM092000 01006KT P6SM OVC015=



000
FTUS41 KBOX 082328
TAFBAF
TAF
KBAF 082328Z 0900/0924 02006KT 1SM -SN OVC015
     FM090500 VRB03KT P6SM OVC020
     FM092100 00000KT P6SM OVC030=



000
FTUS41 KBOX 082328
TAFBDL
TAF
KBDL 082328Z 0900/1006 01007KT 1SM -SN OVC012
     FM090500 02004KT P6SM OVC020
     FM092100 VRB03KT P6SM OVC035=



000
FTUS41 KBOX 082328
TAFPVD
TAF
KPVD 082328Z 0900/0924 36015KT 1SM -SN OVC015
     FM090300 36008KT 2SM -SN OVC015
     FM090500 36008KT P6SM OVC015
     FM091200 36006KT P6SM OVC025
     FM091400 01007KT P6SM OVC020
     FM092000 01006KT P6SM OVC015=



000
FTUS41 KBOX 082328
TAFORH
TAF
KORH 082328Z 0900/0924 02012G18KT 1SM -SN OVC015
     FM090200 02008KT 1SM -SN OVC015
     FM090500 02006KT P6SM OVC015
     FM091100 03005KT P6SM OVC020=



000
FTUS41 KBOX 082328
TAFACK
TAF
KACK 082328Z 0900/0924 01022G36KT 1SM -SN OVC012
     FM090400 36018G27KT P6SM OVC015
     FM090600 36015G23KT P6SM OVC020
     FM090900 01012KT P6SM OVC040
     FM091200 02009KT P6SM BKN025
     FM091500 03009KT P6SM OVC020=



000
FTUS41 KBOX 082328
TAFBOS
TAF
KBOS 082328Z 0900/1006 35013G25KT 4SM -SN OVC025
     FM090500 35009KT 2SM -SN OVC010
     FM090900 35008KT P6SM OVC015
     FM091800 02007KT P6SM OVC015
     FM100100 36006KT P6SM OVC070=



000
FTUS41 KBOX 082147 AAC
TAFACK
TAF AMD
KACK 082147Z 0822/0918 01028G38KT 1SM -SN BKN008 OVC015
     FM082300 02023G35KT 2SM -SN OVC012
     FM090100 01019G30KT 4SM -SN OVC020
     FM090400 01015G27KT P6SM VCSH OVC030
     FM090900 01011KT P6SM OVC040
     FM091500 03013KT P6SM OVC020
     FM091700 03012G20KT P6SM VCSH OVC020=



000
FTUS41 KBOX 082147 AAC
TAFACK
TAF AMD
KACK 082147Z 0822/0918 01028G38KT 1SM -SN BKN008 OVC015
     FM082300 02023G35KT 2SM -SN OVC012
     FM090100 01019G30KT 4SM -SN OVC020
     FM090400 01015G27KT P6SM VCSH OVC030
     FM090900 01011KT P6SM OVC040
     FM091500 03013KT P6SM OVC020
     FM091700 03012G20KT P6SM VCSH OVC020=



000
FTUS41 KBOX 082145 AAD
TAFPVD
TAF AMD
KPVD 082145Z 0822/0918 36018G29KT 1 1/2SM -SN BKN015 OVC020
     FM090100 36011G22KT 3SM -SN OVC025
     FM090400 36008KT P6SM VCSH OVC025
     FM091200 36005KT P6SM OVC025=



000
FTUS41 KBOX 082145 AAD
TAFPVD
TAF AMD
KPVD 082145Z 0822/0918 36018G29KT 1 1/2SM -SN BKN015 OVC020
     FM090100 36011G22KT 3SM -SN OVC025
     FM090400 36008KT P6SM VCSH OVC025
     FM091200 36005KT P6SM OVC025=



000
FTUS41 KBOX 082143 AAC
TAFBAF
TAF AMD
KBAF 082143Z 0822/0918 36011KT 1SM -SN BR OVC015
     FM090000 VRB03KT P6SM VCSH OVC020
     FM091200 VRB03KT P6SM OVC020=



000
FTUS41 KBOX 082143 AAC
TAFORH
TAF AMD
KORH 082143Z 0822/0918 01014G22KT 1SM -SN SCT015 OVC025
     FM082300 01009KT 2SM -SN OVC030
     FM090500 34006KT P6SM VCSH OVC015
     FM091100 35004KT P6SM OVC020=



000
FTUS41 KBOX 082143 AAC
TAFORH
TAF AMD
KORH 082143Z 0822/0918 01014G22KT 1SM -SN SCT015 OVC025
     FM082300 01009KT 2SM -SN OVC030
     FM090500 34006KT P6SM VCSH OVC015
     FM091100 35004KT P6SM OVC020=



000
FTUS41 KBOX 082142 AAD
TAFBDL
TAF AMD
KBDL 082142Z 0822/0924 36010KT 1SM -SN BR BKN025 OVC030
     FM090000 36004KT P6SM VCSH OVC020
     FM091200 VRB03KT P6SM OVC020
     FM092100 02005KT P6SM VCSH OVC035=



000
FTUS41 KBOX 082139 AAD
TAFBOS
TAF AMD
KBOS 082139Z 0822/0924 35014G21KT 2SM -SN OVC025
     FM090600 35008KT 5SM -SN OVC025
     FM090900 35007KT P6SM VCSH OVC025
     FM091800 02007KT P6SM OVC015=



000
FTUS41 KBOX 082015 AAC
TAFPVD
TAF AMD
KPVD 082015Z 0820/0918 36019G26KT 1SM -SN SCT015 OVC020
     FM082100 01014G25KT 2SM -SN OVC020
     FM090100 36011G22KT 5SM -SN OVC025
     FM090400 36008KT P6SM VCSH OVC025
     FM091200 36005KT P6SM OVC025=



000
FTUS41 KBOX 082015 AAC
TAFPVD
TAF AMD
KPVD 082015Z 0820/0918 36019G26KT 1SM -SN SCT015 OVC020
     FM082100 01014G25KT 2SM -SN OVC020
     FM090100 36011G22KT 5SM -SN OVC025
     FM090400 36008KT P6SM VCSH OVC025
     FM091200 36005KT P6SM OVC025=



000
FTUS41 KBOX 082015 AAC
TAFPVD
TAF AMD
KPVD 082015Z 0820/0918 36019G26KT 1SM -SN SCT015 OVC020
     FM082100 01014G25KT 2SM -SN OVC020
     FM090100 36011G22KT 5SM -SN OVC025
     FM090400 36008KT P6SM VCSH OVC025
     FM091200 36005KT P6SM OVC025=



000
FTUS41 KBOX 082013 AAC
TAFBOS
TAF AMD
KBOS 082013Z 0820/0924 35014G23KT 1/2SM SN SCT012 OVC020
     FM082100 35015G23KT 3/4SM -SN OVC020
     FM090000 01015G20KT 2SM -SN OVC020
     FM090600 35008KT 5SM -SN OVC025
     FM090900 35007KT P6SM VCSH OVC025
     FM091800 02007KT P6SM OVC015=



000
FTUS41 KBOX 081740 AAB
TAFACK
TAF AMD
KACK 081740Z 0818/0918 02035G49KT 1/4SM +SN OVC006
     FM082100 02028G45KT 1/2SM SN OVC009
     FM082300 02023G42KT 1SM -SN OVC010
     FM090100 01019G34KT 2SM -SN OVC015
     FM090400 01015G27KT P6SM VCSH OVC010
     FM090900 01011KT P6SM OVC040
     FM091500 03013KT P6SM OVC020
     FM091700 03012G20KT P6SM VCSH OVC020=



000
FTUS41 KBOX 081740 AAB
TAFPVD
TAF AMD
KPVD 081740Z 0818/0918 36017G29KT 1/4SM +SN VV009
     FM082100 01014G30KT 3/4SM -SN OVC012
     FM090100 36011G22KT 2SM -SN OVC015
     FM090400 36008KT P6SM VCSH OVC015
     FM091200 36005KT P6SM OVC025=



000
FTUS41 KBOX 081740 AAB
TAFORH
TAF AMD
KORH 081740Z 0818/0918 02011G20KT 1/4SM +SN VV009
     FM082000 02011G20KT 1/2SM SN OVC012
     FM082300 01009KT 1SM -SN OVC020
     FM090500 34006KT P6SM VCSH OVC015
     FM091100 35004KT P6SM OVC020=



000
FTUS41 KBOX 081740 AAB
TAFBAF
TAF AMD
KBAF 081740Z 0818/0918 02010G21KT 3/4SM -SN OVC012
     FM082100 01008KT 2SM -SN OVC020
     FM090500 VRB03KT P6SM VCSH OVC020
     FM091200 VRB03KT P6SM OVC020=



000
FTUS41 KBOX 081740 AAB
TAFBOS
TAF AMD
KBOS 081740Z 0818/0924 02017G25KT 1/2SM SN VV010
      TEMPO 0818/0821 1/4SM +SN VV008
     FM090000 01015G20KT 1SM -SN OVC010
     FM090600 35008KT 2SM -SN OVC015
     FM090900 35007KT P6SM VCSH OVC015
     FM091800 02007KT P6SM OVC015=



000
FTUS41 KBOX 081740 AAC
TAFBDL
TAF AMD
KBDL 081740Z 0818/0924 01011G23KT 1SM -SN OVC015
     FM082100 36009KT 2SM -SN OVC020
     FM090500 36004KT P6SM VCSH OVC020
     FM091200 VRB03KT P6SM OVC020
     FM092100 02005KT P6SM VCSH OVC035=



000
FTUS41 KBOX 081601 AAB
TAFBDL
TAF AMD
KBDL 081601Z 0816/0918 02016G26KT 2SM -SN OVC020
     FM081700 01011G27KT 1SM -SN OVC015
     FM082000 01010G24KT 3SM -SN OVC015
     FM090600 VRB03KT P6SM VCSH OVC015=



000
FTUS41 KBOX 081456 AAA
TAFACK
TAF AMD
KACK 081456Z 0815/0912 02032G46KT 1/4SM +SN BLSN VV004
     FM081800 02035G59KT 1SM -SN OVC003
     FM082300 02023G42KT 3SM -SN OVC015
     FM090900 01011KT P6SM -SHSN OVC015=



000
FTUS41 KBOX 081456 AAA
TAFACK
TAF AMD
KACK 081456Z 0815/0912 02032G46KT 1/4SM +SN BLSN VV004
     FM081800 02035G59KT 1SM -SN OVC003
     FM082300 02023G42KT 3SM -SN OVC015
     FM090900 01011KT P6SM -SHSN OVC015=



000
FTUS41 KBOX 081453 AAA
TAFBAF
TAF AMD
KBAF 081453Z 0815/0912 02011KT P6SM OVC030
     FM081600 02012G20KT 5SM -SN OVC025
     FM081800 02010G29KT 1SM -SN OVC010
     FM082000 01009KT 3SM -SN OVC015
     FM090600 VRB03KT P6SM VCSH OVC015=



000
FTUS41 KBOX 081441 AAA
TAFPVD
TAF AMD
KPVD 081441Z 0815/0912 35020G28KT 1/2SM SN FZFG VV010
      TEMPO 0815/0819 1/4SM +SN VV007
     FM082200 36013G25KT 2SM -SN OVC010
     FM090300 36009KT 3SM -SHSN OVC015
     FM090600 35006KT P6SM VCSH OVC008=



000
FTUS41 KBOX 081439 AAA
TAFORH
TAF AMD
KORH 081439Z 0815/0912 06012G23KT P6SM OVC022
     FM081515 01010G20KT 2SM -SN OVC015
     FM081700 02010G26KT 1SM -SN OVC008
     FM090000 01008KT 3SM -SN OVC015
     FM090700 34006KT P6SM VCSH OVC008=



000
FTUS41 KBOX 081439 AAA
TAFORH
TAF AMD
KORH 081439Z 0815/0912 06012G23KT P6SM OVC022
     FM081515 01010G20KT 2SM -SN OVC015
     FM081700 02010G26KT 1SM -SN OVC008
     FM090000 01008KT 3SM -SN OVC015
     FM090700 34006KT P6SM VCSH OVC008=



000
FTUS41 KBOX 081439 AAA
TAFORH
TAF AMD
KORH 081439Z 0815/0912 06012G23KT P6SM OVC022
     FM081515 01010G20KT 2SM -SN OVC015
     FM081700 02010G26KT 1SM -SN OVC008
     FM090000 01008KT 3SM -SN OVC015
     FM090700 34006KT P6SM VCSH OVC008=



000
FTUS41 KBOX 081435 AAA
TAFBDL
TAF AMD
KBDL 081435Z 0815/0918 02017KT P6SM BKN035 OVC100
     FM081515 01018KT 5SM -SN OVC025
     FM081800 01011G27KT 1SM -SN OVC010
     FM082000 01010G24KT 3SM -SN OVC015
     FM090600 VRB03KT P6SM VCSH OVC015=



000
FTUS41 KBOX 081431 AAA
TAFBOS
TAF AMD
KBOS 081431Z 0815/0918 02023G35KT 3/4SM -SN OVC012
      TEMPO 0815/0818 1/2SM SN BKN008
     FM082300 01017G32KT 2SM -SN OVC015
     FM090700 36009KT 2SM -SHSN OVC008
     FM091100 35006KT P6SM VCSH OVC008=



000
FTUS41 KBOX 081120
TAFBOS
TAF
KBOS 081120Z 0812/0918 04025G40KT P6SM OVC030
     FM081400 04025G42KT 2SM -SN OVC020
     FM081500 03024G42KT 1/2SM SN OVC010
      TEMPO 0815/0819 1/4SM +SN OVC004
     FM082300 01017G32KT 2SM -SN OVC015
     FM090700 36009KT 2SM -SHSN OVC008
     FM091100 35006KT P6SM VCSH OVC008=



000
FTUS41 KBOX 081120
TAFBDL
TAF
KBDL 081120Z 0812/0918 03016G24KT P6SM OVC025
     FM081400 02015G29KT 2SM -SN OVC020
     FM081800 01011G27KT 1SM -SN OVC010
     FM082000 01010G24KT 3SM -SN OVC015
     FM090600 VRB03KT P6SM VCSH OVC015=



000
FTUS41 KBOX 081120
TAFBOS
TAF
KBOS 081120Z 0812/0918 04025G40KT P6SM OVC030
     FM081400 04025G42KT 2SM -SN OVC020
     FM081500 03024G42KT 1/2SM SN OVC010
      TEMPO 0815/0819 1/4SM +SN OVC004
     FM082300 01017G32KT 2SM -SN OVC015
     FM090700 36009KT 2SM -SHSN OVC008
     FM091100 35006KT P6SM VCSH OVC008=



000
FTUS41 KBOX 081120
TAFPVD
TAF
KPVD 081120Z 0812/0912 04023G40KT 4SM -SN OVC025
     FM081300 04024G40KT 1 1/2SM -SN OVC020
     FM081500 02020G35KT 1/2SM SN OVC008
      TEMPO 0815/0819 1/4SM +SN OVC002
     FM082200 36013G25KT 2SM -SN OVC010
     FM090300 36009KT 3SM -SHSN OVC015
     FM090600 35006KT P6SM VCSH OVC008=



000
FTUS41 KBOX 081120
TAFBDL
TAF
KBDL 081120Z 0812/0918 03016G24KT P6SM OVC025
     FM081400 02015G29KT 2SM -SN OVC020
     FM081800 01011G27KT 1SM -SN OVC010
     FM082000 01010G24KT 3SM -SN OVC015
     FM090600 VRB03KT P6SM VCSH OVC015=



000
FTUS41 KBOX 081120
TAFACK
TAF
KACK 081120Z 0812/0912 04028G42KT 1SM -SN OVC006
     FM081400 03032G55KT 1/4SM +SN OVC002
     FM081800 02035G59KT 1SM -SN OVC003
     FM082300 02023G42KT 3SM -SN OVC015
     FM090900 01011KT P6SM -SHSN OVC015=



000
FTUS41 KBOX 081120
TAFORH
TAF
KORH 081120Z 0812/0912 03016G35KT P6SM OVC025
     FM081400 03013G36KT 1SM -SN OVC012
     FM082000 02010G26KT 1SM -SN OVC008
     FM090000 01008KT 3SM -SN OVC015
     FM090700 34006KT P6SM VCSH OVC008=



000
FTUS41 KBOX 081120
TAFBAF
TAF
KBAF 081120Z 0812/0912 04014G26KT P6SM OVC030
     FM081400 02015G28KT 2SM -SN OVC025
     FM081800 02010G29KT 1SM -SN OVC010
     FM082000 01009KT 3SM -SN OVC015
     FM090600 VRB03KT P6SM VCSH OVC015=



000
FTUS41 KBOX 081120
TAFACK
TAF
KACK 081120Z 0812/0912 04028G42KT 1SM -SN OVC006
     FM081400 03032G55KT 1/4SM +SN OVC002
     FM081800 02035G59KT 1SM -SN OVC003
     FM082300 02023G42KT 3SM -SN OVC015
     FM090900 01011KT P6SM -SHSN OVC015=



000
FTUS41 KBOX 081120
TAFBDL
TAF
KBDL 081120Z 0812/0918 03016G24KT P6SM OVC025
     FM081400 02015G29KT 2SM -SN OVC020
     FM081800 01011G27KT 1SM -SN OVC010
     FM082000 01010G24KT 3SM -SN OVC015
     FM090600 VRB03KT P6SM VCSH OVC015=



000
FTUS41 KBOX 081120
TAFPVD
TAF
KPVD 081120Z 0812/0912 04023G40KT 4SM -SN OVC025
     FM081300 04024G40KT 1 1/2SM -SN OVC020
     FM081500 02020G35KT 1/2SM SN OVC008
      TEMPO 0815/0819 1/4SM +SN OVC002
     FM082200 36013G25KT 2SM -SN OVC010
     FM090300 36009KT 3SM -SHSN OVC015
     FM090600 35006KT P6SM VCSH OVC008=



000
FTUS41 KBOX 081120
TAFACK
TAF
KACK 081120Z 0812/0912 04028G42KT 1SM -SN OVC006
     FM081400 03032G55KT 1/4SM +SN OVC002
     FM081800 02035G59KT 1SM -SN OVC003
     FM082300 02023G42KT 3SM -SN OVC015
     FM090900 01011KT P6SM -SHSN OVC015=



000
FTUS41 KBOX 081120
TAFBAF
TAF
KBAF 081120Z 0812/0912 04014G26KT P6SM OVC030
     FM081400 02015G28KT 2SM -SN OVC025
     FM081800 02010G29KT 1SM -SN OVC010
     FM082000 01009KT 3SM -SN OVC015
     FM090600 VRB03KT P6SM VCSH OVC015=



000
FTUS41 KBOX 081120
TAFORH
TAF
KORH 081120Z 0812/0912 03016G35KT P6SM OVC025
     FM081400 03013G36KT 1SM -SN OVC012
     FM082000 02010G26KT 1SM -SN OVC008
     FM090000 01008KT 3SM -SN OVC015
     FM090700 34006KT P6SM VCSH OVC008=



000
FTUS41 KBOX 081120
TAFORH
TAF
KORH 081120Z 0812/0912 03016G35KT P6SM OVC025
     FM081400 03013G36KT 1SM -SN OVC012
     FM082000 02010G26KT 1SM -SN OVC008
     FM090000 01008KT 3SM -SN OVC015
     FM090700 34006KT P6SM VCSH OVC008=



000
FTUS41 KBOX 081120
TAFBOS
TAF
KBOS 081120Z 0812/0918 04025G40KT P6SM OVC030
     FM081400 04025G42KT 2SM -SN OVC020
     FM081500 03024G42KT 1/2SM SN OVC010
      TEMPO 0815/0819 1/4SM +SN OVC004
     FM082300 01017G32KT 2SM -SN OVC015
     FM090700 36009KT 2SM -SHSN OVC008
     FM091100 35006KT P6SM VCSH OVC008=



000
FTUS41 KBOX 081120
TAFBAF
TAF
KBAF 081120Z 0812/0912 04014G26KT P6SM OVC030
     FM081400 02015G28KT 2SM -SN OVC025
     FM081800 02010G29KT 1SM -SN OVC010
     FM082000 01009KT 3SM -SN OVC015
     FM090600 VRB03KT P6SM VCSH OVC015=



000
FTUS41 KBOX 081120
TAFPVD
TAF
KPVD 081120Z 0812/0912 04023G40KT 4SM -SN OVC025
     FM081300 04024G40KT 1 1/2SM -SN OVC020
     FM081500 02020G35KT 1/2SM SN OVC008
      TEMPO 0815/0819 1/4SM +SN OVC002
     FM082200 36013G25KT 2SM -SN OVC010
     FM090300 36009KT 3SM -SHSN OVC015
     FM090600 35006KT P6SM VCSH OVC008=



000
FTUS41 KBOX 080924 AAA
TAFACK
TAF AMD
KACK 080924Z 0809/0906 06027G45KT 1SM -SN OVC008
     FM081030 05030G50KT 1/2SM SN OVC008
     FM081200 04031G47KT 1/4SM +SN OVC008
     FM081600 03033G55KT 1/4SM +SN OVC008
     FM081800 02035G52KT 1SM -SN OVC010
     FM090300 01016G29KT 3SM -SHSN OVC015=



000
FTUS41 KBOX 080919 AAA
TAFPVD
TAF AMD
KPVD 080919Z 0809/0906 04025G40KT P6SM OVC025
     FM081100 03024G40KT 1SM -SN OVC020
     FM081300 03017G36KT 1/2SM SN OVC010
      TEMPO 0813/0817 1/4SM +SN OVC008
     FM081800 01018G39KT 2SM -SN OVC010
     FM090500 35007KT 3SM -SHSN OVC008=



000
FTUS41 KBOX 080919 AAA
TAFPVD
TAF AMD
KPVD 080919Z 0809/0906 04025G40KT P6SM OVC025
     FM081100 03024G40KT 1SM -SN OVC020
     FM081300 03017G36KT 1/2SM SN OVC010
      TEMPO 0813/0817 1/4SM +SN OVC008
     FM081800 01018G39KT 2SM -SN OVC010
     FM090500 35007KT 3SM -SHSN OVC008=



000
FTUS41 KBOX 080918 AAA
TAFBDL
TAF AMD
KBDL 080918Z 0809/0912 03018G26KT P6SM OVC025
     FM081130 02011G21KT 4SM -SN BR OVC015
     FM081300 02012G28KT 3/4SM -SN OVC015
     FM082200 36008KT 1SM -SN OVC015
     FM090500 36004KT 2SM -SHSN OVC015
     FM090600 VRB03KT P6SM VCSH OVC015=



000
FTUS41 KBOX 080917 AAA
TAFBOS
TAF AMD
KBOS 080917Z 0809/0912 06022G40KT P6SM BKN025
     FM081130 04024G45KT 2SM -SN OVC025
     FM081230 04024G45KT 1/2SM SN OVC010
      TEMPO 0813/0817 1/4SM +SN FG OVC008
     FM081700 02019G40KT 1SM -SN OVC010
     FM082300 01016G35KT 1SM -SN OVC015
     FM091100 35006KT P6SM VCSH OVC008=



000
FTUS41 KBOX 080538
TAFPVD
TAF
KPVD 080538Z 0806/0906 04010G17KT P6SM OVC120
     FM080800 04013G20KT P6SM OVC025
     FM081000 03014G23KT 1SM -SN OVC020
     FM081200 03017G36KT 1/2SM SN OVC010
      TEMPO 0813/0817 1/4SM +SN OVC008
     FM081800 01018G39KT 2SM -SN OVC010
     FM090500 35007KT 3SM -SHSN OVC008=



000
FTUS41 KBOX 080538
TAFBOS
TAF
KBOS 080538Z 0806/0912 06013G25KT P6SM BKN025
     FM081030 04018G35KT 2SM -SN OVC025
     FM081230 04018G37KT 1/2SM SN OVC010
      TEMPO 0813/0817 1/4SM +SN FG OVC008
     FM081700 02019G40KT 1SM -SN OVC010
     FM082300 01016G35KT 1SM -SN OVC015
     FM091100 35006KT P6SM VCSH OVC008=



000
FTUS41 KBOX 080538
TAFBAF
TAF
KBAF 080538Z 0806/0906 03006KT P6SM SCT025
     FM080730 03009KT P6SM BKN020
     FM081200 02011G26KT 4SM -SN OVC020
     FM081400 02011G30KT 1SM -SN OVC020
     FM082200 01007KT 1SM -SN OVC015
     FM090500 VRB03KT 2SM -SHSN OVC015=



000
FTUS41 KBOX 080538
TAFACK
TAF
KACK 080538Z 0806/0906 06023G31KT 3SM -RA OVC090
     FM080800 06027G41KT 3SM -RA OVC020
     FM081000 05028G43KT 1/2SM SN OVC020
     FM081200 04031G47KT 1/4SM +SN OVC010
     FM081600 03033G55KT 1/4SM +SN OVC010
     FM081800 02035G52KT 1SM -SN OVC010
     FM090300 01016G29KT 3SM -SHSN OVC015=



000
FTUS41 KBOX 080538
TAFORH
TAF
KORH 080538Z 0806/0906 05009G18KT P6SM BKN020
     FM080900 04012G27KT P6SM OVC015
     FM081200 04013G29KT 4SM -SN BR OVC010
     FM081315 03013G32KT 1/2SM SN OVC010
     FM081800 02011G28KT 1SM -SN OVC010
     FM090000 01008KT 1SM -SN OVC015=



000
FTUS41 KBOX 080538
TAFBDL
TAF
KBDL 080538Z 0806/0912 02007KT P6SM SCT025
     FM080730 02010KT P6SM BKN020
     FM080900 02010G17KT P6SM OVC015
     FM081100 02011G21KT 4SM -SN BR OVC015
     FM081300 02012G28KT 3/4SM -SN OVC015
     FM082200 36008KT 1SM -SN OVC015
     FM090500 36004KT 2SM -SHSN OVC015
     FM090600 VRB03KT P6SM VCSH OVC015=



000
FTUS41 KBOX 080538
TAFBAF
TAF
KBAF 080538Z 0806/0906 03006KT P6SM SCT025
     FM080730 03009KT P6SM BKN020
     FM081200 02011G26KT 4SM -SN OVC020
     FM081400 02011G30KT 1SM -SN OVC020
     FM082200 01007KT 1SM -SN OVC015
     FM090500 VRB03KT 2SM -SHSN OVC015=



000
FTUS41 KBOX 080538
TAFACK
TAF
KACK 080538Z 0806/0906 06023G31KT 3SM -RA OVC090
     FM080800 06027G41KT 3SM -RA OVC020
     FM081000 05028G43KT 1/2SM SN OVC020
     FM081200 04031G47KT 1/4SM +SN OVC010
     FM081600 03033G55KT 1/4SM +SN OVC010
     FM081800 02035G52KT 1SM -SN OVC010
     FM090300 01016G29KT 3SM -SHSN OVC015=



000
FTUS41 KBOX 080538
TAFPVD
TAF
KPVD 080538Z 0806/0906 04010G17KT P6SM OVC120
     FM080800 04013G20KT P6SM OVC025
     FM081000 03014G23KT 1SM -SN OVC020
     FM081200 03017G36KT 1/2SM SN OVC010
      TEMPO 0813/0817 1/4SM +SN OVC008
     FM081800 01018G39KT 2SM -SN OVC010
     FM090500 35007KT 3SM -SHSN OVC008=



000
FTUS41 KBOX 080538
TAFBDL
TAF
KBDL 080538Z 0806/0912 02007KT P6SM SCT025
     FM080730 02010KT P6SM BKN020
     FM080900 02010G17KT P6SM OVC015
     FM081100 02011G21KT 4SM -SN BR OVC015
     FM081300 02012G28KT 3/4SM -SN OVC015
     FM082200 36008KT 1SM -SN OVC015
     FM090500 36004KT 2SM -SHSN OVC015
     FM090600 VRB03KT P6SM VCSH OVC015=



000
FTUS41 KBOX 080538
TAFBOS
TAF
KBOS 080538Z 0806/0912 06013G25KT P6SM BKN025
     FM081030 04018G35KT 2SM -SN OVC025
     FM081230 04018G37KT 1/2SM SN OVC010
      TEMPO 0813/0817 1/4SM +SN FG OVC008
     FM081700 02019G40KT 1SM -SN OVC010
     FM082300 01016G35KT 1SM -SN OVC015
     FM091100 35006KT P6SM VCSH OVC008=



000
FTUS41 KBOX 080538
TAFORH
TAF
KORH 080538Z 0806/0906 05009G18KT P6SM BKN020
     FM080900 04012G27KT P6SM OVC015
     FM081200 04013G29KT 4SM -SN BR OVC010
     FM081315 03013G32KT 1/2SM SN OVC010
     FM081800 02011G28KT 1SM -SN OVC010
     FM090000 01008KT 1SM -SN OVC015=



000
FTUS41 KBOX 080538
TAFPVD
TAF
KPVD 080538Z 0806/0906 04010G17KT P6SM OVC120
     FM080800 04013G20KT P6SM OVC025
     FM081000 03014G23KT 1SM -SN OVC020
     FM081200 03017G36KT 1/2SM SN OVC010
      TEMPO 0813/0817 1/4SM +SN OVC008
     FM081800 01018G39KT 2SM -SN OVC010
     FM090500 35007KT 3SM -SHSN OVC008=



000
FTUS41 KBOX 080538
TAFBDL
TAF
KBDL 080538Z 0806/0912 02007KT P6SM SCT025
     FM080730 02010KT P6SM BKN020
     FM080900 02010G17KT P6SM OVC015
     FM081100 02011G21KT 4SM -SN BR OVC015
     FM081300 02012G28KT 3/4SM -SN OVC015
     FM082200 36008KT 1SM -SN OVC015
     FM090500 36004KT 2SM -SHSN OVC015
     FM090600 VRB03KT P6SM VCSH OVC015=



000
FTUS41 KBOX 080538
TAFACK
TAF
KACK 080538Z 0806/0906 06023G31KT 3SM -RA OVC090
     FM080800 06027G41KT 3SM -RA OVC020
     FM081000 05028G43KT 1/2SM SN OVC020
     FM081200 04031G47KT 1/4SM +SN OVC010
     FM081600 03033G55KT 1/4SM +SN OVC010
     FM081800 02035G52KT 1SM -SN OVC010
     FM090300 01016G29KT 3SM -SHSN OVC015=



000
FTUS41 KBOX 080538
TAFBAF
TAF
KBAF 080538Z 0806/0906 03006KT P6SM SCT025
     FM080730 03009KT P6SM BKN020
     FM081200 02011G26KT 4SM -SN OVC020
     FM081400 02011G30KT 1SM -SN OVC020
     FM082200 01007KT 1SM -SN OVC015
     FM090500 VRB03KT 2SM -SHSN OVC015=



000
FTUS41 KBOX 080538
TAFBOS
TAF
KBOS 080538Z 0806/0912 06013G25KT P6SM BKN025
     FM081030 04018G35KT 2SM -SN OVC025
     FM081230 04018G37KT 1/2SM SN OVC010
      TEMPO 0813/0817 1/4SM +SN FG OVC008
     FM081700 02019G40KT 1SM -SN OVC010
     FM082300 01016G35KT 1SM -SN OVC015
     FM091100 35006KT P6SM VCSH OVC008=



000
FTUS41 KBOX 080538
TAFORH
TAF
KORH 080538Z 0806/0906 05009G18KT P6SM BKN020
     FM080900 04012G27KT P6SM OVC015
     FM081200 04013G29KT 4SM -SN BR OVC010
     FM081315 03013G32KT 1/2SM SN OVC010
     FM081800 02011G28KT 1SM -SN OVC010
     FM090000 01008KT 1SM -SN OVC015=



000
FTUS41 KBOX 072343
TAFPVD
TAF
KPVD 072343Z 0800/0824 04005KT P6SM OVC200
     FM080400 04009KT P6SM OVC120
     FM080600 04010KT P6SM VCSH OVC025
     FM080800 04012KT P6SM VCSH OVC015
     FM081000 04013KT 1/2SM -SN FG OVC015
     FM081100 03014KT 1/2SM SN FG OVC015
     FM081200 03015KT 1/4SM +SN FG OVC015
     FM081800 02016G30KT 2SM -SN BR OVC015=



000
FTUS41 KBOX 072343
TAFBOS
TAF
KBOS 072343Z 0800/0906 06007KT P6SM SCT250
     FM080500 06009KT P6SM BKN150
     FM080800 05012G29KT P6SM VCSH BKN025
     FM081100 04014G38KT 3SM -SN OVC020
     FM081200 04015G35KT 1/2SM SN FG OVC015
     FM081400 03015G36KT 1/4SM +SN FG OVC015
     FM081800 02014G36KT 1SM -SN BR OVC015
     FM090200 01010G17KT 5SM -SN OVC015=



000
FTUS41 KBOX 072343
TAFBAF
TAF
KBAF 072343Z 0800/0824 00000KT P6SM SCT250
     FM080600 04005KT P6SM BKN025
     FM080800 04006KT P6SM BKN020
     FM081000 04007KT P6SM BKN025
     FM081100 03007KT P6SM VCSH OVC025
     FM081400 03008KT P6SM VCSH OVC020
     FM081600 03008KT 1SM -SN BR BKN020=



000
FTUS41 KBOX 072343
TAFPVD
TAF
KPVD 072343Z 0800/0824 04005KT P6SM OVC200
     FM080400 04009KT P6SM OVC120
     FM080600 04010KT P6SM VCSH OVC025
     FM080800 04012KT P6SM VCSH OVC015
     FM081000 04013KT 1/2SM -SN FG OVC015
     FM081100 03014KT 1/2SM SN FG OVC015
     FM081200 03015KT 1/4SM +SN FG OVC015
     FM081800 02016G30KT 2SM -SN BR OVC015=



000
FTUS41 KBOX 072343
TAFACK
TAF
KACK 072343Z 0800/0824 06007KT P6SM OVC200
     FM080200 06011KT P6SM OVC120
     FM080400 06015KT P6SM VCSH OVC100
     FM080600 06019KT 3SM -RA OVC070
     FM080800 06022G35KT 3SM -RA OVC020
     FM081000 05024G44KT 3SM -SN BR OVC015
     FM081400 04028G51KT 1/2SM SN FG OVC015
     FM081800 02031G56KT 1SM -SN BR OVC015
     FM082100 02026G47KT 1SM -SN BR OVC020=



000
FTUS41 KBOX 072343
TAFORH
TAF
KORH 072343Z 0800/0824 VRB03KT P6SM SCT250
     FM080600 05005KT P6SM BKN015 WS020/07035KT
     FM080800 04007KT P6SM VCSH OVC015 WS020/06035KT
     FM081000 04007KT P6SM VCSH OVC015
     FM081200 04008KT 1/2SM SN OVC015
     FM081800 02006KT 1SM -SN OVC015=



000
FTUS41 KBOX 072343
TAFACK
TAF
KACK 072343Z 0800/0824 06007KT P6SM OVC200
     FM080200 06011KT P6SM OVC120
     FM080400 06015KT P6SM VCSH OVC100
     FM080600 06019KT 3SM -RA OVC070
     FM080800 06022G35KT 3SM -RA OVC020
     FM081000 05024G44KT 3SM -SN BR OVC015
     FM081400 04028G51KT 1/2SM SN FG OVC015
     FM081800 02031G56KT 1SM -SN BR OVC015
     FM082100 02026G47KT 1SM -SN BR OVC020=



000
FTUS41 KBOX 072343
TAFORH
TAF
KORH 072343Z 0800/0824 VRB03KT P6SM SCT250
     FM080600 05005KT P6SM BKN015 WS020/07035KT
     FM080800 04007KT P6SM VCSH OVC015 WS020/06035KT
     FM081000 04007KT P6SM VCSH OVC015
     FM081200 04008KT 1/2SM SN OVC015
     FM081800 02006KT 1SM -SN OVC015=



000
FTUS41 KBOX 072343
TAFBDL
TAF
KBDL 072343Z 0800/0906 VRB03KT P6SM SCT250
     FM080600 03005KT P6SM BKN025
     FM080800 03007KT P6SM OVC015
     FM081000 03008KT P6SM VCSH OVC020
     FM081200 03010G26KT P6SM VCSH OVC020
     FM081500 02010G21KT 1/2SM SN FG OVC015
     FM081800 02010G23KT 1SM -SN BR BKN015
     FM090200 02006KT P6SM VCSH OVC015=



000
FTUS41 KBOX 072343
TAFBAF
TAF
KBAF 072343Z 0800/0824 00000KT P6SM SCT250
     FM080600 04005KT P6SM BKN025
     FM080800 04006KT P6SM BKN020
     FM081000 04007KT P6SM BKN025
     FM081100 03007KT P6SM VCSH OVC025
     FM081400 03008KT P6SM VCSH OVC020
     FM081600 03008KT 1SM -SN BR BKN020=



000
FTUS41 KBOX 072343
TAFBDL
TAF
KBDL 072343Z 0800/0906 VRB03KT P6SM SCT250
     FM080600 03005KT P6SM BKN025
     FM080800 03007KT P6SM OVC015
     FM081000 03008KT P6SM VCSH OVC020
     FM081200 03010G26KT P6SM VCSH OVC020
     FM081500 02010G21KT 1/2SM SN FG OVC015
     FM081800 02010G23KT 1SM -SN BR BKN015
     FM090200 02006KT P6SM VCSH OVC015=



000
FTUS41 KBOX 072343
TAFBOS
TAF
KBOS 072343Z 0800/0906 06007KT P6SM SCT250
     FM080500 06009KT P6SM BKN150
     FM080800 05012G29KT P6SM VCSH BKN025
     FM081100 04014G38KT 3SM -SN OVC020
     FM081200 04015G35KT 1/2SM SN FG OVC015
     FM081400 03015G36KT 1/4SM +SN FG OVC015
     FM081800 02014G36KT 1SM -SN BR OVC015
     FM090200 01010G17KT 5SM -SN OVC015=



000
FTUS41 KBOX 072106 AAC
TAFPVD
TAF AMD
KPVD 072106Z 0721/0818 VRB03KT P6SM FEW250
     FM080100 05006KT P6SM SCT200
     FM080600 04010KT P6SM VCSH BKN015 WS020/06035KT
     FM081000 03014KT 1/2SM SN OVC010
     FM081200 03015KT 1/4SM +SN OVC009
     FM081700 02016G28KT 1/4SM +SN OVC009=



000
FTUS41 KBOX 072106 AAC
TAFPVD
TAF AMD
KPVD 072106Z 0721/0818 VRB03KT P6SM FEW250
     FM080100 05006KT P6SM SCT200
     FM080600 04010KT P6SM VCSH BKN015 WS020/06035KT
     FM081000 03014KT 1/2SM SN OVC010
     FM081200 03015KT 1/4SM +SN OVC009
     FM081700 02016G28KT 1/4SM +SN OVC009=



000
FTUS41 KBOX 072106 AAC
TAFPVD
TAF AMD
KPVD 072106Z 0721/0818 VRB03KT P6SM FEW250
     FM080100 05006KT P6SM SCT200
     FM080600 04010KT P6SM VCSH BKN015 WS020/06035KT
     FM081000 03014KT 1/2SM SN OVC010
     FM081200 03015KT 1/4SM +SN OVC009
     FM081700 02016G28KT 1/4SM +SN OVC009=



000
FTUS41 KBOX 072105 AAC
TAFORH
TAF AMD
KORH 072105Z 0721/0818 06006KT P6SM SKC
     FM080600 05006KT P6SM BKN015 WS020/07035KT
     FM081000 04008KT P6SM -SN BKN015
     FM081200 04008KT 1/2SM SN OVC010=



000
FTUS41 KBOX 072104 AAC
TAFBDL
TAF AMD
KBDL 072104Z 0721/0824 VRB03KT P6SM SKC
     FM080600 03005KT P6SM BKN025
     FM081200 03010G27KT P6SM VCSH BKN020
     FM081500 02010G21KT 1/2SM SN OVC010
     FM081800 02010G24KT 1SM -SN BKN015=



000
FTUS41 KBOX 072101 AAC
TAFBOS
TAF AMD
KBOS 072101Z 0721/0824 06007KT P6SM SKC
     FM080600 06010KT P6SM BKN015
     FM080800 05012G28KT P6SM BKN025
     FM081100 04014G37KT 3SM -SN OVC020
     FM081300 03015G36KT 1/4SM +SN OVC009
     FM081800 02014G39KT 1SM -SN OVC015=



000
FTUS41 KBOX 072101 AAC
TAFBOS
TAF AMD
KBOS 072101Z 0721/0824 06007KT P6SM SKC
     FM080600 06010KT P6SM BKN015
     FM080800 05012G28KT P6SM BKN025
     FM081100 04014G37KT 3SM -SN OVC020
     FM081300 03015G36KT 1/4SM +SN OVC009
     FM081800 02014G39KT 1SM -SN OVC015=



000
FTUS41 KBOX 072101 AAC
TAFBOS
TAF AMD
KBOS 072101Z 0721/0824 06007KT P6SM SKC
     FM080600 06010KT P6SM BKN015
     FM080800 05012G28KT P6SM BKN025
     FM081100 04014G37KT 3SM -SN OVC020
     FM081300 03015G36KT 1/4SM +SN OVC009
     FM081800 02014G39KT 1SM -SN OVC015=



    US Dept of Commerce
    National Oceanic and Atmospheric Administration
    National Weather Service
    1325 East West Highway
    Silver Spring, MD 20910
    Page Author: NWS Internet Services Team
Disclaimer
Information Quality
Credits
Glossary
Privacy Policy
Freedom of Information Act (FOIA)
About Us
Career Opportunities